<?xml version="1.0" encoding="UTF-8" standalone="no" ?>
<gpx xmlns="http://www.topografix.com/GPX/1/1" xmlns:xsi="http://www.w3.org/2001/XMLSchema-instance" xsi:schemaLocation="http://www.topografix.com/GPX/1/1 http://www.topografix.com/GPX/1/1/gpx.xsd" version="1.1" creator="VisuGPX - https://www.visugpx.com">
  <metadata>
    <name>skirando raid J2 : campo base bellino meleze</name>
    <desc><![CDATA[montée vers Bellino, on croise des renards. superbe vue au sommet. on descend sous le sommet (poudre tassée puis neige tassée). Ensuite, on fait du plat, on passe dans un premier goulet large, avant de rejoindre les gorges de pian ceiol (qui passent bien à ski cette année). arrivée au superbe refuge de meleze. avec les amis.]]></desc>
  </metadata>
  <wpt lat="44.49742" lon="6.91928">
    <ele>1633.84</ele>
    <name><![CDATA[0000355]]></name>
    <type><![CDATA[Point de départ]]></type>
  </wpt>
  <wpt lat="44.57446" lon="6.98173">
    <ele>1804.74</ele>
    <name><![CDATA[0000356]]></name>
    <desc><![CDATA[<p><br /><h3>Nom: Segment: 1</h3><br />Heure de départ: 04/21/2018 05:30<br/>Heure d'arrivée: 04/21/2018 10:50<br/>Distance: 15,7km (05:20)<br/>Temps déplacement: 03:23<br/>Vitesse moyenne: 2,94 km/h<br/>Vitesse moyenne mouv.: 4,59 km/h<br/>Vitesse Max.: 33,94 km/h<br/>Altitude minimale: 1618 m<br/>Altitude maximale: 2939 m<br/>Vitesse de montée: 333,4 m/h<br/>Vitesse de descente: -888,8 m/h<br/>Gain d'altitude: 1335 m<br/>Perte d'altitude: -1160 m<br/>Temps de montée: 04:00<br/>Temps de descente: 01:18<br/></p>]]></desc>
    <type><![CDATA[Point d'arrivée]]></type>
  </wpt>
  <trk>
    <name><![CDATA[2018-04-21 05:30 raid j2 campobase bellino meleze]]></name>
    <trkseg>
      <trkpt lat="44.49742" lon="6.91928">
        <ele>1633.84</ele>
        <time>2018-04-21T03:30:51.000Z</time>
      </trkpt>
      <trkpt lat="44.4972" lon="6.91911">
        <ele>1620.5</ele>
        <time>2018-04-21T03:31:10.000Z</time>
      </trkpt>
      <trkpt lat="44.49739" lon="6.91906">
        <ele>1635.21</ele>
        <time>2018-04-21T03:31:46.000Z</time>
      </trkpt>
      <trkpt lat="44.49729" lon="6.9193">
        <ele>1635.35</ele>
        <time>2018-04-21T03:32:18.000Z</time>
      </trkpt>
      <trkpt lat="44.49748" lon="6.91935">
        <ele>1635.74</ele>
        <time>2018-04-21T03:32:38.000Z</time>
      </trkpt>
      <trkpt lat="44.4977" lon="6.91943">
        <ele>1635.1</ele>
        <time>2018-04-21T03:32:58.000Z</time>
      </trkpt>
      <trkpt lat="44.49788" lon="6.91949">
        <ele>1633.2</ele>
        <time>2018-04-21T03:33:14.000Z</time>
      </trkpt>
      <trkpt lat="44.49805" lon="6.91955">
        <ele>1630.43</ele>
        <time>2018-04-21T03:33:30.000Z</time>
      </trkpt>
      <trkpt lat="44.49825" lon="6.91949">
        <ele>1628.12</ele>
        <time>2018-04-21T03:33:42.000Z</time>
      </trkpt>
      <trkpt lat="44.49849" lon="6.91935">
        <ele>1624.38</ele>
        <time>2018-04-21T03:33:58.000Z</time>
      </trkpt>
      <trkpt lat="44.49868" lon="6.91934">
        <ele>1619.85</ele>
        <time>2018-04-21T03:34:18.000Z</time>
      </trkpt>
      <trkpt lat="44.49869" lon="6.91961">
        <ele>1618.27</ele>
        <time>2018-04-21T03:34:58.000Z</time>
      </trkpt>
      <trkpt lat="44.49871" lon="6.91987">
        <ele>1623.59</ele>
        <time>2018-04-21T03:37:54.000Z</time>
      </trkpt>
      <trkpt lat="44.49878" lon="6.92011">
        <ele>1624.98</ele>
        <time>2018-04-21T03:38:14.000Z</time>
      </trkpt>
      <trkpt lat="44.49886" lon="6.92035">
        <ele>1627.52</ele>
        <time>2018-04-21T03:38:38.000Z</time>
      </trkpt>
      <trkpt lat="44.49903" lon="6.92043">
        <ele>1629.92</ele>
        <time>2018-04-21T03:38:58.000Z</time>
      </trkpt>
      <trkpt lat="44.49914" lon="6.92064">
        <ele>1631.52</ele>
        <time>2018-04-21T03:39:18.000Z</time>
      </trkpt>
      <trkpt lat="44.49913" lon="6.9209">
        <ele>1634.1</ele>
        <time>2018-04-21T03:39:42.000Z</time>
      </trkpt>
      <trkpt lat="44.499" lon="6.92109">
        <ele>1636.62</ele>
        <time>2018-04-21T03:40:10.000Z</time>
      </trkpt>
      <trkpt lat="44.49882" lon="6.92117">
        <ele>1641.66</ele>
        <time>2018-04-21T03:40:58.000Z</time>
      </trkpt>
      <trkpt lat="44.49881" lon="6.92143">
        <ele>1648.43</ele>
        <time>2018-04-21T03:42:10.000Z</time>
      </trkpt>
      <trkpt lat="44.49904" lon="6.92145">
        <ele>1658.44</ele>
        <time>2018-04-21T03:44:26.000Z</time>
      </trkpt>
      <trkpt lat="44.49921" lon="6.92137">
        <ele>1661.03</ele>
        <time>2018-04-21T03:44:46.000Z</time>
      </trkpt>
      <trkpt lat="44.49939" lon="6.92143">
        <ele>1663.05</ele>
        <time>2018-04-21T03:45:10.000Z</time>
      </trkpt>
      <trkpt lat="44.49952" lon="6.92167">
        <ele>1665.28</ele>
        <time>2018-04-21T03:45:30.000Z</time>
      </trkpt>
      <trkpt lat="44.49971" lon="6.92176">
        <ele>1668.23</ele>
        <time>2018-04-21T03:45:54.000Z</time>
      </trkpt>
      <trkpt lat="44.49993" lon="6.9217">
        <ele>1670.64</ele>
        <time>2018-04-21T03:46:18.000Z</time>
      </trkpt>
      <trkpt lat="44.50014" lon="6.92164">
        <ele>1672.46</ele>
        <time>2018-04-21T03:46:46.000Z</time>
      </trkpt>
      <trkpt lat="44.50032" lon="6.92159">
        <ele>1674.16</ele>
        <time>2018-04-21T03:47:06.000Z</time>
      </trkpt>
      <trkpt lat="44.5005" lon="6.92146">
        <ele>1675.5</ele>
        <time>2018-04-21T03:47:30.000Z</time>
      </trkpt>
      <trkpt lat="44.50065" lon="6.92126">
        <ele>1675.38</ele>
        <time>2018-04-21T03:47:58.000Z</time>
      </trkpt>
      <trkpt lat="44.50079" lon="6.92109">
        <ele>1675.21</ele>
        <time>2018-04-21T03:48:21.000Z</time>
      </trkpt>
      <trkpt lat="44.50097" lon="6.92099">
        <ele>1676.31</ele>
        <time>2018-04-21T03:48:45.000Z</time>
      </trkpt>
      <trkpt lat="44.50113" lon="6.92085">
        <ele>1678.18</ele>
        <time>2018-04-21T03:49:09.000Z</time>
      </trkpt>
      <trkpt lat="44.50132" lon="6.92075">
        <ele>1680.31</ele>
        <time>2018-04-21T03:49:37.000Z</time>
      </trkpt>
      <trkpt lat="44.50151" lon="6.92062">
        <ele>1682.51</ele>
        <time>2018-04-21T03:50:01.000Z</time>
      </trkpt>
      <trkpt lat="44.50167" lon="6.92048">
        <ele>1684.16</ele>
        <time>2018-04-21T03:50:25.000Z</time>
      </trkpt>
      <trkpt lat="44.50187" lon="6.9204">
        <ele>1685.71</ele>
        <time>2018-04-21T03:50:53.000Z</time>
      </trkpt>
      <trkpt lat="44.50206" lon="6.92027">
        <ele>1687.58</ele>
        <time>2018-04-21T03:51:21.000Z</time>
      </trkpt>
      <trkpt lat="44.50222" lon="6.92012">
        <ele>1689.92</ele>
        <time>2018-04-21T03:51:49.000Z</time>
      </trkpt>
      <trkpt lat="44.50238" lon="6.91999">
        <ele>1691.85</ele>
        <time>2018-04-21T03:52:13.000Z</time>
      </trkpt>
      <trkpt lat="44.50256" lon="6.91985">
        <ele>1693.74</ele>
        <time>2018-04-21T03:52:37.000Z</time>
      </trkpt>
      <trkpt lat="44.50271" lon="6.91971">
        <ele>1696.52</ele>
        <time>2018-04-21T03:53:01.000Z</time>
      </trkpt>
      <trkpt lat="44.50286" lon="6.91957">
        <ele>1699.92</ele>
        <time>2018-04-21T03:53:25.000Z</time>
      </trkpt>
      <trkpt lat="44.50304" lon="6.91948">
        <ele>1703.84</ele>
        <time>2018-04-21T03:53:49.000Z</time>
      </trkpt>
      <trkpt lat="44.50319" lon="6.91931">
        <ele>1706.38</ele>
        <time>2018-04-21T03:54:17.000Z</time>
      </trkpt>
      <trkpt lat="44.50329" lon="6.91909">
        <ele>1708.24</ele>
        <time>2018-04-21T03:54:45.000Z</time>
      </trkpt>
      <trkpt lat="44.50338" lon="6.91884">
        <ele>1709.15</ele>
        <time>2018-04-21T03:55:05.000Z</time>
      </trkpt>
      <trkpt lat="44.50346" lon="6.91861">
        <ele>1712.98</ele>
        <time>2018-04-21T03:56:05.000Z</time>
      </trkpt>
      <trkpt lat="44.50362" lon="6.91842">
        <ele>1718.07</ele>
        <time>2018-04-21T03:57:25.000Z</time>
      </trkpt>
      <trkpt lat="44.50381" lon="6.91836">
        <ele>1719.61</ele>
        <time>2018-04-21T03:57:45.000Z</time>
      </trkpt>
      <trkpt lat="44.50399" lon="6.91822">
        <ele>1721.38</ele>
        <time>2018-04-21T03:58:05.000Z</time>
      </trkpt>
      <trkpt lat="44.50414" lon="6.91807">
        <ele>1723.37</ele>
        <time>2018-04-21T03:58:53.000Z</time>
      </trkpt>
      <trkpt lat="44.50432" lon="6.91795">
        <ele>1724.97</ele>
        <time>2018-04-21T03:59:21.000Z</time>
      </trkpt>
      <trkpt lat="44.50447" lon="6.91776">
        <ele>1725.77</ele>
        <time>2018-04-21T03:59:49.000Z</time>
      </trkpt>
      <trkpt lat="44.50462" lon="6.9176">
        <ele>1725.43</ele>
        <time>2018-04-21T04:00:05.000Z</time>
      </trkpt>
      <trkpt lat="44.5048" lon="6.91748">
        <ele>1726.16</ele>
        <time>2018-04-21T04:00:29.000Z</time>
      </trkpt>
      <trkpt lat="44.50496" lon="6.91734">
        <ele>1726.67</ele>
        <time>2018-04-21T04:00:49.000Z</time>
      </trkpt>
      <trkpt lat="44.50514" lon="6.91719">
        <ele>1727.3</ele>
        <time>2018-04-21T04:01:13.000Z</time>
      </trkpt>
      <trkpt lat="44.50532" lon="6.91702">
        <ele>1728.73</ele>
        <time>2018-04-21T04:01:37.000Z</time>
      </trkpt>
      <trkpt lat="44.50547" lon="6.91682">
        <ele>1730.63</ele>
        <time>2018-04-21T04:02:05.000Z</time>
      </trkpt>
      <trkpt lat="44.50558" lon="6.91661">
        <ele>1733.22</ele>
        <time>2018-04-21T04:02:29.000Z</time>
      </trkpt>
      <trkpt lat="44.50568" lon="6.9164">
        <ele>1735.31</ele>
        <time>2018-04-21T04:02:45.000Z</time>
      </trkpt>
      <trkpt lat="44.50579" lon="6.91616">
        <ele>1737.7</ele>
        <time>2018-04-21T04:03:09.000Z</time>
      </trkpt>
      <trkpt lat="44.50594" lon="6.916">
        <ele>1740.03</ele>
        <time>2018-04-21T04:03:25.000Z</time>
      </trkpt>
      <trkpt lat="44.50613" lon="6.91588">
        <ele>1742.37</ele>
        <time>2018-04-21T04:03:49.000Z</time>
      </trkpt>
      <trkpt lat="44.50631" lon="6.91576">
        <ele>1742.97</ele>
        <time>2018-04-21T04:04:13.000Z</time>
      </trkpt>
      <trkpt lat="44.50647" lon="6.91558">
        <ele>1741.72</ele>
        <time>2018-04-21T04:04:37.000Z</time>
      </trkpt>
      <trkpt lat="44.50661" lon="6.91539">
        <ele>1741.07</ele>
        <time>2018-04-21T04:05:01.000Z</time>
      </trkpt>
      <trkpt lat="44.50673" lon="6.91519">
        <ele>1739.79</ele>
        <time>2018-04-21T04:05:21.000Z</time>
      </trkpt>
      <trkpt lat="44.50681" lon="6.91492">
        <ele>1741.27</ele>
        <time>2018-04-21T04:06:01.000Z</time>
      </trkpt>
      <trkpt lat="44.50685" lon="6.91464">
        <ele>1743.01</ele>
        <time>2018-04-21T04:06:25.000Z</time>
      </trkpt>
      <trkpt lat="44.50693" lon="6.9144">
        <ele>1743.49</ele>
        <time>2018-04-21T04:06:49.000Z</time>
      </trkpt>
      <trkpt lat="44.50706" lon="6.91418">
        <ele>1743.66</ele>
        <time>2018-04-21T04:07:09.000Z</time>
      </trkpt>
      <trkpt lat="44.50723" lon="6.91402">
        <ele>1744.1</ele>
        <time>2018-04-21T04:07:33.000Z</time>
      </trkpt>
      <trkpt lat="44.50739" lon="6.91388">
        <ele>1745.2</ele>
        <time>2018-04-21T04:07:53.000Z</time>
      </trkpt>
      <trkpt lat="44.50755" lon="6.91373">
        <ele>1752.02</ele>
        <time>2018-04-21T04:10:14.000Z</time>
      </trkpt>
      <trkpt lat="44.50772" lon="6.91359">
        <ele>1753.61</ele>
        <time>2018-04-21T04:10:38.000Z</time>
      </trkpt>
      <trkpt lat="44.50788" lon="6.91345">
        <ele>1754.04</ele>
        <time>2018-04-21T04:10:58.000Z</time>
      </trkpt>
      <trkpt lat="44.50806" lon="6.91331">
        <ele>1756.15</ele>
        <time>2018-04-21T04:11:22.000Z</time>
      </trkpt>
      <trkpt lat="44.50824" lon="6.91324">
        <ele>1757.03</ele>
        <time>2018-04-21T04:11:42.000Z</time>
      </trkpt>
      <trkpt lat="44.50842" lon="6.91321">
        <ele>1757.91</ele>
        <time>2018-04-21T04:12:02.000Z</time>
      </trkpt>
      <trkpt lat="44.50862" lon="6.91316">
        <ele>1758.55</ele>
        <time>2018-04-21T04:12:22.000Z</time>
      </trkpt>
      <trkpt lat="44.5088" lon="6.91311">
        <ele>1759.62</ele>
        <time>2018-04-21T04:12:42.000Z</time>
      </trkpt>
      <trkpt lat="44.509" lon="6.91308">
        <ele>1760.58</ele>
        <time>2018-04-21T04:13:02.000Z</time>
      </trkpt>
      <trkpt lat="44.50919" lon="6.91308">
        <ele>1762.39</ele>
        <time>2018-04-21T04:13:22.000Z</time>
      </trkpt>
      <trkpt lat="44.5094" lon="6.9131">
        <ele>1763.72</ele>
        <time>2018-04-21T04:13:46.000Z</time>
      </trkpt>
      <trkpt lat="44.50957" lon="6.9132">
        <ele>1766.98</ele>
        <time>2018-04-21T04:14:10.000Z</time>
      </trkpt>
      <trkpt lat="44.50977" lon="6.91321">
        <ele>1769.34</ele>
        <time>2018-04-21T04:14:30.000Z</time>
      </trkpt>
      <trkpt lat="44.50995" lon="6.91314">
        <ele>1770.99</ele>
        <time>2018-04-21T04:14:46.000Z</time>
      </trkpt>
      <trkpt lat="44.51013" lon="6.913">
        <ele>1772.61</ele>
        <time>2018-04-21T04:15:10.000Z</time>
      </trkpt>
      <trkpt lat="44.5103" lon="6.91287">
        <ele>1774.39</ele>
        <time>2018-04-21T04:15:30.000Z</time>
      </trkpt>
      <trkpt lat="44.51048" lon="6.91275">
        <ele>1778.2</ele>
        <time>2018-04-21T04:15:58.000Z</time>
      </trkpt>
      <trkpt lat="44.51066" lon="6.91262">
        <ele>1780.7</ele>
        <time>2018-04-21T04:16:22.000Z</time>
      </trkpt>
      <trkpt lat="44.51084" lon="6.91252">
        <ele>1783.16</ele>
        <time>2018-04-21T04:16:46.000Z</time>
      </trkpt>
      <trkpt lat="44.51102" lon="6.9124">
        <ele>1783.84</ele>
        <time>2018-04-21T04:17:10.000Z</time>
      </trkpt>
      <trkpt lat="44.51117" lon="6.91224">
        <ele>1783.86</ele>
        <time>2018-04-21T04:17:34.000Z</time>
      </trkpt>
      <trkpt lat="44.51138" lon="6.91209">
        <ele>1781.62</ele>
        <time>2018-04-21T04:18:02.000Z</time>
      </trkpt>
      <trkpt lat="44.51154" lon="6.91198">
        <ele>1782.38</ele>
        <time>2018-04-21T04:18:22.000Z</time>
      </trkpt>
      <trkpt lat="44.51171" lon="6.91188">
        <ele>1784.91</ele>
        <time>2018-04-21T04:18:42.000Z</time>
      </trkpt>
      <trkpt lat="44.5119" lon="6.91177">
        <ele>1786.43</ele>
        <time>2018-04-21T04:19:02.000Z</time>
      </trkpt>
      <trkpt lat="44.51207" lon="6.91164">
        <ele>1789.13</ele>
        <time>2018-04-21T04:19:26.000Z</time>
      </trkpt>
      <trkpt lat="44.51227" lon="6.91159">
        <ele>1793.2</ele>
        <time>2018-04-21T04:19:54.000Z</time>
      </trkpt>
      <trkpt lat="44.51245" lon="6.91162">
        <ele>1795.7</ele>
        <time>2018-04-21T04:20:14.000Z</time>
      </trkpt>
      <trkpt lat="44.51264" lon="6.91159">
        <ele>1797.22</ele>
        <time>2018-04-21T04:20:38.000Z</time>
      </trkpt>
      <trkpt lat="44.51279" lon="6.91143">
        <ele>1798.39</ele>
        <time>2018-04-21T04:20:58.000Z</time>
      </trkpt>
      <trkpt lat="44.51291" lon="6.91123">
        <ele>1800.22</ele>
        <time>2018-04-21T04:21:22.000Z</time>
      </trkpt>
      <trkpt lat="44.51308" lon="6.91109">
        <ele>1799.72</ele>
        <time>2018-04-21T04:22:10.000Z</time>
      </trkpt>
      <trkpt lat="44.51327" lon="6.91101">
        <ele>1799.01</ele>
        <time>2018-04-21T04:22:38.000Z</time>
      </trkpt>
      <trkpt lat="44.51344" lon="6.91095">
        <ele>1799.12</ele>
        <time>2018-04-21T04:23:02.000Z</time>
      </trkpt>
      <trkpt lat="44.51366" lon="6.9109">
        <ele>1801.11</ele>
        <time>2018-04-21T04:23:26.000Z</time>
      </trkpt>
      <trkpt lat="44.51386" lon="6.91083">
        <ele>1805.25</ele>
        <time>2018-04-21T04:23:54.000Z</time>
      </trkpt>
      <trkpt lat="44.51404" lon="6.9108">
        <ele>1808.05</ele>
        <time>2018-04-21T04:24:14.000Z</time>
      </trkpt>
      <trkpt lat="44.51423" lon="6.91074">
        <ele>1811.98</ele>
        <time>2018-04-21T04:24:38.000Z</time>
      </trkpt>
      <trkpt lat="44.51443" lon="6.91065">
        <ele>1813.69</ele>
        <time>2018-04-21T04:24:58.000Z</time>
      </trkpt>
      <trkpt lat="44.51461" lon="6.91053">
        <ele>1814.1</ele>
        <time>2018-04-21T04:25:22.000Z</time>
      </trkpt>
      <trkpt lat="44.51479" lon="6.91045">
        <ele>1815.38</ele>
        <time>2018-04-21T04:25:42.000Z</time>
      </trkpt>
      <trkpt lat="44.51497" lon="6.91034">
        <ele>1817.12</ele>
        <time>2018-04-21T04:26:06.000Z</time>
      </trkpt>
      <trkpt lat="44.51517" lon="6.91034">
        <ele>1819.61</ele>
        <time>2018-04-21T04:26:30.000Z</time>
      </trkpt>
      <trkpt lat="44.51535" lon="6.9103">
        <ele>1822.5</ele>
        <time>2018-04-21T04:26:50.000Z</time>
      </trkpt>
      <trkpt lat="44.51552" lon="6.91021">
        <ele>1829.88</ele>
        <time>2018-04-21T04:28:02.000Z</time>
      </trkpt>
      <trkpt lat="44.51568" lon="6.91008">
        <ele>1833.14</ele>
        <time>2018-04-21T04:28:26.000Z</time>
      </trkpt>
      <trkpt lat="44.51583" lon="6.90995">
        <ele>1837.41</ele>
        <time>2018-04-21T04:28:50.000Z</time>
      </trkpt>
      <trkpt lat="44.51604" lon="6.90987">
        <ele>1838.19</ele>
        <time>2018-04-21T04:29:13.000Z</time>
      </trkpt>
      <trkpt lat="44.51621" lon="6.90971">
        <ele>1838.17</ele>
        <time>2018-04-21T04:29:37.000Z</time>
      </trkpt>
      <trkpt lat="44.51638" lon="6.9096">
        <ele>1840.58</ele>
        <time>2018-04-21T04:30:01.000Z</time>
      </trkpt>
      <trkpt lat="44.51654" lon="6.90946">
        <ele>1845.09</ele>
        <time>2018-04-21T04:30:41.000Z</time>
      </trkpt>
      <trkpt lat="44.5167" lon="6.90933">
        <ele>1848.69</ele>
        <time>2018-04-21T04:31:05.000Z</time>
      </trkpt>
      <trkpt lat="44.51685" lon="6.90918">
        <ele>1851.56</ele>
        <time>2018-04-21T04:31:33.000Z</time>
      </trkpt>
      <trkpt lat="44.51699" lon="6.90901">
        <ele>1852.9</ele>
        <time>2018-04-21T04:31:53.000Z</time>
      </trkpt>
      <trkpt lat="44.51714" lon="6.90886">
        <ele>1853.48</ele>
        <time>2018-04-21T04:32:09.000Z</time>
      </trkpt>
      <trkpt lat="44.5173" lon="6.90873">
        <ele>1854.9</ele>
        <time>2018-04-21T04:32:33.000Z</time>
      </trkpt>
      <trkpt lat="44.51746" lon="6.90855">
        <ele>1855.74</ele>
        <time>2018-04-21T04:32:57.000Z</time>
      </trkpt>
      <trkpt lat="44.51763" lon="6.90844">
        <ele>1856.85</ele>
        <time>2018-04-21T04:33:17.000Z</time>
      </trkpt>
      <trkpt lat="44.5178" lon="6.90831">
        <ele>1860.44</ele>
        <time>2018-04-21T04:33:37.000Z</time>
      </trkpt>
      <trkpt lat="44.51794" lon="6.90813">
        <ele>1865.16</ele>
        <time>2018-04-21T04:34:01.000Z</time>
      </trkpt>
      <trkpt lat="44.51809" lon="6.90791">
        <ele>1870.25</ele>
        <time>2018-04-21T04:34:29.000Z</time>
      </trkpt>
      <trkpt lat="44.51825" lon="6.90778">
        <ele>1874.5</ele>
        <time>2018-04-21T04:34:49.000Z</time>
      </trkpt>
      <trkpt lat="44.51841" lon="6.90765">
        <ele>1878.79</ele>
        <time>2018-04-21T04:35:09.000Z</time>
      </trkpt>
      <trkpt lat="44.51854" lon="6.90743">
        <ele>1882.88</ele>
        <time>2018-04-21T04:35:33.000Z</time>
      </trkpt>
      <trkpt lat="44.5187" lon="6.90731">
        <ele>1887.29</ele>
        <time>2018-04-21T04:37:21.000Z</time>
      </trkpt>
      <trkpt lat="44.51891" lon="6.90718">
        <ele>1887.46</ele>
        <time>2018-04-21T04:37:49.000Z</time>
      </trkpt>
      <trkpt lat="44.51907" lon="6.90706">
        <ele>1886.46</ele>
        <time>2018-04-21T04:38:13.000Z</time>
      </trkpt>
      <trkpt lat="44.51915" lon="6.90682">
        <ele>1886.48</ele>
        <time>2018-04-21T04:38:33.000Z</time>
      </trkpt>
      <trkpt lat="44.51915" lon="6.90655">
        <ele>1886.5</ele>
        <time>2018-04-21T04:38:57.000Z</time>
      </trkpt>
      <trkpt lat="44.51921" lon="6.90629">
        <ele>1885.9</ele>
        <time>2018-04-21T04:39:21.000Z</time>
      </trkpt>
      <trkpt lat="44.51931" lon="6.90605">
        <ele>1886.33</ele>
        <time>2018-04-21T04:39:41.000Z</time>
      </trkpt>
      <trkpt lat="44.51942" lon="6.90578">
        <ele>1888.44</ele>
        <time>2018-04-21T04:40:05.000Z</time>
      </trkpt>
      <trkpt lat="44.51962" lon="6.90565">
        <ele>1892.15</ele>
        <time>2018-04-21T04:40:29.000Z</time>
      </trkpt>
      <trkpt lat="44.5198" lon="6.9056">
        <ele>1896.9</ele>
        <time>2018-04-21T04:41:25.000Z</time>
      </trkpt>
      <trkpt lat="44.51996" lon="6.90548">
        <ele>1898.17</ele>
        <time>2018-04-21T04:41:49.000Z</time>
      </trkpt>
      <trkpt lat="44.52014" lon="6.90535">
        <ele>1899.31</ele>
        <time>2018-04-21T04:42:13.000Z</time>
      </trkpt>
      <trkpt lat="44.52035" lon="6.90526">
        <ele>1905.47</ele>
        <time>2018-04-21T04:43:05.000Z</time>
      </trkpt>
      <trkpt lat="44.52053" lon="6.90522">
        <ele>1907.23</ele>
        <time>2018-04-21T04:43:29.000Z</time>
      </trkpt>
      <trkpt lat="44.52071" lon="6.90526">
        <ele>1913.28</ele>
        <time>2018-04-21T04:44:53.000Z</time>
      </trkpt>
      <trkpt lat="44.52081" lon="6.90553">
        <ele>1917.56</ele>
        <time>2018-04-21T04:45:49.000Z</time>
      </trkpt>
      <trkpt lat="44.52083" lon="6.90582">
        <ele>1923.57</ele>
        <time>2018-04-21T04:46:17.000Z</time>
      </trkpt>
      <trkpt lat="44.52078" lon="6.90607">
        <ele>1929.86</ele>
        <time>2018-04-21T04:46:53.000Z</time>
      </trkpt>
      <trkpt lat="44.52064" lon="6.90623">
        <ele>1933.6</ele>
        <time>2018-04-21T04:47:17.000Z</time>
      </trkpt>
      <trkpt lat="44.52079" lon="6.90642">
        <ele>1946.01</ele>
        <time>2018-04-21T04:48:41.000Z</time>
      </trkpt>
      <trkpt lat="44.52098" lon="6.90639">
        <ele>1945.36</ele>
        <time>2018-04-21T04:49:14.000Z</time>
      </trkpt>
      <trkpt lat="44.52118" lon="6.90627">
        <ele>1945.72</ele>
        <time>2018-04-21T04:49:46.000Z</time>
      </trkpt>
      <trkpt lat="44.52133" lon="6.90613">
        <ele>1950.18</ele>
        <time>2018-04-21T04:50:22.000Z</time>
      </trkpt>
      <trkpt lat="44.52148" lon="6.90597">
        <ele>1956.41</ele>
        <time>2018-04-21T04:50:54.000Z</time>
      </trkpt>
      <trkpt lat="44.52167" lon="6.90607">
        <ele>1968.08</ele>
        <time>2018-04-21T04:52:10.000Z</time>
      </trkpt>
      <trkpt lat="44.52185" lon="6.90618">
        <ele>1980.28</ele>
        <time>2018-04-21T04:52:46.000Z</time>
      </trkpt>
      <trkpt lat="44.52203" lon="6.90618">
        <ele>1991.15</ele>
        <time>2018-04-21T04:53:38.000Z</time>
      </trkpt>
      <trkpt lat="44.52222" lon="6.90623">
        <ele>1995.97</ele>
        <time>2018-04-21T04:57:39.000Z</time>
      </trkpt>
      <trkpt lat="44.52233" lon="6.90649">
        <ele>1995.66</ele>
        <time>2018-04-21T04:58:03.000Z</time>
      </trkpt>
      <trkpt lat="44.52243" lon="6.90672">
        <ele>1995.11</ele>
        <time>2018-04-21T04:58:23.000Z</time>
      </trkpt>
      <trkpt lat="44.52252" lon="6.90696">
        <ele>1995.39</ele>
        <time>2018-04-21T04:58:47.000Z</time>
      </trkpt>
      <trkpt lat="44.52258" lon="6.90724">
        <ele>1997.27</ele>
        <time>2018-04-21T04:59:11.000Z</time>
      </trkpt>
      <trkpt lat="44.52267" lon="6.90748">
        <ele>1999.59</ele>
        <time>2018-04-21T04:59:35.000Z</time>
      </trkpt>
      <trkpt lat="44.5228" lon="6.90768">
        <ele>2000.62</ele>
        <time>2018-04-21T05:00:03.000Z</time>
      </trkpt>
      <trkpt lat="44.52286" lon="6.90795">
        <ele>2001.94</ele>
        <time>2018-04-21T05:00:31.000Z</time>
      </trkpt>
      <trkpt lat="44.52293" lon="6.90819">
        <ele>2004.46</ele>
        <time>2018-04-21T05:00:59.000Z</time>
      </trkpt>
      <trkpt lat="44.52305" lon="6.90842">
        <ele>2007.06</ele>
        <time>2018-04-21T05:01:27.000Z</time>
      </trkpt>
      <trkpt lat="44.5232" lon="6.90863">
        <ele>2008.63</ele>
        <time>2018-04-21T05:01:51.000Z</time>
      </trkpt>
      <trkpt lat="44.52333" lon="6.90884">
        <ele>2009.5</ele>
        <time>2018-04-21T05:02:11.000Z</time>
      </trkpt>
      <trkpt lat="44.52349" lon="6.90897">
        <ele>2009.14</ele>
        <time>2018-04-21T05:02:35.000Z</time>
      </trkpt>
      <trkpt lat="44.52361" lon="6.90917">
        <ele>2010.29</ele>
        <time>2018-04-21T05:03:27.000Z</time>
      </trkpt>
      <trkpt lat="44.5237" lon="6.9094">
        <ele>2012.27</ele>
        <time>2018-04-21T05:03:47.000Z</time>
      </trkpt>
      <trkpt lat="44.52382" lon="6.90959">
        <ele>2014.03</ele>
        <time>2018-04-21T05:04:07.000Z</time>
      </trkpt>
      <trkpt lat="44.52391" lon="6.90982">
        <ele>2014.98</ele>
        <time>2018-04-21T05:04:27.000Z</time>
      </trkpt>
      <trkpt lat="44.52398" lon="6.91006">
        <ele>2016.06</ele>
        <time>2018-04-21T05:04:47.000Z</time>
      </trkpt>
      <trkpt lat="44.52407" lon="6.9103">
        <ele>2017.31</ele>
        <time>2018-04-21T05:05:07.000Z</time>
      </trkpt>
      <trkpt lat="44.52428" lon="6.91045">
        <ele>2018.27</ele>
        <time>2018-04-21T05:05:27.000Z</time>
      </trkpt>
      <trkpt lat="44.52431" lon="6.91075">
        <ele>2019.11</ele>
        <time>2018-04-21T05:05:43.000Z</time>
      </trkpt>
      <trkpt lat="44.52432" lon="6.91103">
        <ele>2019.77</ele>
        <time>2018-04-21T05:06:03.000Z</time>
      </trkpt>
      <trkpt lat="44.52434" lon="6.9113">
        <ele>2020.36</ele>
        <time>2018-04-21T05:06:27.000Z</time>
      </trkpt>
      <trkpt lat="44.52433" lon="6.9116">
        <ele>2021.41</ele>
        <time>2018-04-21T05:06:51.000Z</time>
      </trkpt>
      <trkpt lat="44.52434" lon="6.91186">
        <ele>2023.07</ele>
        <time>2018-04-21T05:07:15.000Z</time>
      </trkpt>
      <trkpt lat="44.52443" lon="6.91209">
        <ele>2024.14</ele>
        <time>2018-04-21T05:07:35.000Z</time>
      </trkpt>
      <trkpt lat="44.52452" lon="6.91232">
        <ele>2025.89</ele>
        <time>2018-04-21T05:07:55.000Z</time>
      </trkpt>
      <trkpt lat="44.52461" lon="6.91258">
        <ele>2027.9</ele>
        <time>2018-04-21T05:08:15.000Z</time>
      </trkpt>
      <trkpt lat="44.52468" lon="6.91282">
        <ele>2030.19</ele>
        <time>2018-04-21T05:08:35.000Z</time>
      </trkpt>
      <trkpt lat="44.5247" lon="6.91308">
        <ele>2034.33</ele>
        <time>2018-04-21T05:08:58.000Z</time>
      </trkpt>
      <trkpt lat="44.52468" lon="6.91335">
        <ele>2037.91</ele>
        <time>2018-04-21T05:10:10.000Z</time>
      </trkpt>
      <trkpt lat="44.5247" lon="6.91365">
        <ele>2039.72</ele>
        <time>2018-04-21T05:10:34.000Z</time>
      </trkpt>
      <trkpt lat="44.52473" lon="6.91394">
        <ele>2042.41</ele>
        <time>2018-04-21T05:10:58.000Z</time>
      </trkpt>
      <trkpt lat="44.52479" lon="6.91421">
        <ele>2045.45</ele>
        <time>2018-04-21T05:11:18.000Z</time>
      </trkpt>
      <trkpt lat="44.52486" lon="6.9145">
        <ele>2049.52</ele>
        <time>2018-04-21T05:11:42.000Z</time>
      </trkpt>
      <trkpt lat="44.5249" lon="6.91478">
        <ele>2053.22</ele>
        <time>2018-04-21T05:12:06.000Z</time>
      </trkpt>
      <trkpt lat="44.52498" lon="6.91501">
        <ele>2055.73</ele>
        <time>2018-04-21T05:12:26.000Z</time>
      </trkpt>
      <trkpt lat="44.52508" lon="6.91525">
        <ele>2057.08</ele>
        <time>2018-04-21T05:12:46.000Z</time>
      </trkpt>
      <trkpt lat="44.52515" lon="6.91554">
        <ele>2058.11</ele>
        <time>2018-04-21T05:13:10.000Z</time>
      </trkpt>
      <trkpt lat="44.52521" lon="6.91578">
        <ele>2060.08</ele>
        <time>2018-04-21T05:14:26.000Z</time>
      </trkpt>
      <trkpt lat="44.52528" lon="6.91606">
        <ele>2062.03</ele>
        <time>2018-04-21T05:14:50.000Z</time>
      </trkpt>
      <trkpt lat="44.52539" lon="6.9163">
        <ele>2062.88</ele>
        <time>2018-04-21T05:15:14.000Z</time>
      </trkpt>
      <trkpt lat="44.52546" lon="6.91653">
        <ele>2062.58</ele>
        <time>2018-04-21T05:15:54.000Z</time>
      </trkpt>
      <trkpt lat="44.52562" lon="6.91673">
        <ele>2063.21</ele>
        <time>2018-04-21T05:16:18.000Z</time>
      </trkpt>
      <trkpt lat="44.52578" lon="6.91689">
        <ele>2065.14</ele>
        <time>2018-04-21T05:16:46.000Z</time>
      </trkpt>
      <trkpt lat="44.52596" lon="6.91702">
        <ele>2069.32</ele>
        <time>2018-04-21T05:17:18.000Z</time>
      </trkpt>
      <trkpt lat="44.52614" lon="6.9169">
        <ele>2073.12</ele>
        <time>2018-04-21T05:17:50.000Z</time>
      </trkpt>
      <trkpt lat="44.52632" lon="6.91681">
        <ele>2078.15</ele>
        <time>2018-04-21T05:18:50.000Z</time>
      </trkpt>
      <trkpt lat="44.52651" lon="6.9169">
        <ele>2085.97</ele>
        <time>2018-04-21T05:19:58.000Z</time>
      </trkpt>
      <trkpt lat="44.5267" lon="6.91679">
        <ele>2089.83</ele>
        <time>2018-04-21T05:20:38.000Z</time>
      </trkpt>
      <trkpt lat="44.52689" lon="6.91667">
        <ele>2096.35</ele>
        <time>2018-04-21T05:21:10.000Z</time>
      </trkpt>
      <trkpt lat="44.52707" lon="6.91658">
        <ele>2102.92</ele>
        <time>2018-04-21T05:21:34.000Z</time>
      </trkpt>
      <trkpt lat="44.52722" lon="6.91641">
        <ele>2110.59</ele>
        <time>2018-04-21T05:22:06.000Z</time>
      </trkpt>
      <trkpt lat="44.52742" lon="6.91634">
        <ele>2116.69</ele>
        <time>2018-04-21T05:22:34.000Z</time>
      </trkpt>
      <trkpt lat="44.5276" lon="6.91628">
        <ele>2121.07</ele>
        <time>2018-04-21T05:22:58.000Z</time>
      </trkpt>
      <trkpt lat="44.52778" lon="6.91625">
        <ele>2126.63</ele>
        <time>2018-04-21T05:23:50.000Z</time>
      </trkpt>
      <trkpt lat="44.52798" lon="6.91618">
        <ele>2130.21</ele>
        <time>2018-04-21T05:24:14.000Z</time>
      </trkpt>
      <trkpt lat="44.52818" lon="6.91614">
        <ele>2133.95</ele>
        <time>2018-04-21T05:24:42.000Z</time>
      </trkpt>
      <trkpt lat="44.52839" lon="6.91606">
        <ele>2136.67</ele>
        <time>2018-04-21T05:25:10.000Z</time>
      </trkpt>
      <trkpt lat="44.52858" lon="6.91612">
        <ele>2142.81</ele>
        <time>2018-04-21T05:28:28.000Z</time>
      </trkpt>
      <trkpt lat="44.52876" lon="6.91617">
        <ele>2144.19</ele>
        <time>2018-04-21T05:28:44.000Z</time>
      </trkpt>
      <trkpt lat="44.52898" lon="6.91624">
        <ele>2144.83</ele>
        <time>2018-04-21T05:29:00.000Z</time>
      </trkpt>
      <trkpt lat="44.52915" lon="6.91636">
        <ele>2144.77</ele>
        <time>2018-04-21T05:29:24.000Z</time>
      </trkpt>
      <trkpt lat="44.52938" lon="6.91636">
        <ele>2143.49</ele>
        <time>2018-04-21T05:29:40.000Z</time>
      </trkpt>
      <trkpt lat="44.52957" lon="6.91624">
        <ele>2141.42</ele>
        <time>2018-04-21T05:30:00.000Z</time>
      </trkpt>
      <trkpt lat="44.52974" lon="6.91611">
        <ele>2141.78</ele>
        <time>2018-04-21T05:30:36.000Z</time>
      </trkpt>
      <trkpt lat="44.52996" lon="6.91622">
        <ele>2141.22</ele>
        <time>2018-04-21T05:31:00.000Z</time>
      </trkpt>
      <trkpt lat="44.53017" lon="6.91619">
        <ele>2135.94</ele>
        <time>2018-04-21T05:33:20.000Z</time>
      </trkpt>
      <trkpt lat="44.53037" lon="6.91613">
        <ele>2134.07</ele>
        <time>2018-04-21T05:33:40.000Z</time>
      </trkpt>
      <trkpt lat="44.53055" lon="6.916">
        <ele>2132.4</ele>
        <time>2018-04-21T05:34:00.000Z</time>
      </trkpt>
      <trkpt lat="44.53074" lon="6.91589">
        <ele>2132.09</ele>
        <time>2018-04-21T05:34:24.000Z</time>
      </trkpt>
      <trkpt lat="44.53093" lon="6.91578">
        <ele>2132.77</ele>
        <time>2018-04-21T05:34:48.000Z</time>
      </trkpt>
      <trkpt lat="44.53113" lon="6.91576">
        <ele>2134.43</ele>
        <time>2018-04-21T05:35:12.000Z</time>
      </trkpt>
      <trkpt lat="44.53133" lon="6.91574">
        <ele>2135.89</ele>
        <time>2018-04-21T05:35:32.000Z</time>
      </trkpt>
      <trkpt lat="44.53153" lon="6.91575">
        <ele>2138.03</ele>
        <time>2018-04-21T05:35:56.000Z</time>
      </trkpt>
      <trkpt lat="44.5317" lon="6.91588">
        <ele>2139.62</ele>
        <time>2018-04-21T05:36:16.000Z</time>
      </trkpt>
      <trkpt lat="44.53188" lon="6.91603">
        <ele>2141.56</ele>
        <time>2018-04-21T05:36:40.000Z</time>
      </trkpt>
      <trkpt lat="44.53204" lon="6.91621">
        <ele>2143.52</ele>
        <time>2018-04-21T05:37:04.000Z</time>
      </trkpt>
      <trkpt lat="44.53219" lon="6.91637">
        <ele>2145.67</ele>
        <time>2018-04-21T05:37:24.000Z</time>
      </trkpt>
      <trkpt lat="44.53234" lon="6.91656">
        <ele>2149.08</ele>
        <time>2018-04-21T05:37:48.000Z</time>
      </trkpt>
      <trkpt lat="44.53249" lon="6.91672">
        <ele>2152.24</ele>
        <time>2018-04-21T05:38:08.000Z</time>
      </trkpt>
      <trkpt lat="44.53267" lon="6.91684">
        <ele>2155.52</ele>
        <time>2018-04-21T05:38:32.000Z</time>
      </trkpt>
      <trkpt lat="44.53285" lon="6.91694">
        <ele>2158.67</ele>
        <time>2018-04-21T05:38:56.000Z</time>
      </trkpt>
      <trkpt lat="44.53305" lon="6.91705">
        <ele>2161.43</ele>
        <time>2018-04-21T05:39:20.000Z</time>
      </trkpt>
      <trkpt lat="44.53324" lon="6.91719">
        <ele>2163.58</ele>
        <time>2018-04-21T05:39:40.000Z</time>
      </trkpt>
      <trkpt lat="44.5334" lon="6.91734">
        <ele>2166.04</ele>
        <time>2018-04-21T05:40:04.000Z</time>
      </trkpt>
      <trkpt lat="44.5336" lon="6.91737">
        <ele>2168.77</ele>
        <time>2018-04-21T05:40:28.000Z</time>
      </trkpt>
      <trkpt lat="44.53377" lon="6.91729">
        <ele>2170.39</ele>
        <time>2018-04-21T05:40:44.000Z</time>
      </trkpt>
      <trkpt lat="44.53399" lon="6.91725">
        <ele>2173.88</ele>
        <time>2018-04-21T05:41:36.000Z</time>
      </trkpt>
      <trkpt lat="44.53418" lon="6.91727">
        <ele>2175.38</ele>
        <time>2018-04-21T05:42:04.000Z</time>
      </trkpt>
      <trkpt lat="44.53436" lon="6.91732">
        <ele>2177.15</ele>
        <time>2018-04-21T05:42:32.000Z</time>
      </trkpt>
      <trkpt lat="44.53452" lon="6.9172">
        <ele>2180.36</ele>
        <time>2018-04-21T05:42:56.000Z</time>
      </trkpt>
      <trkpt lat="44.53471" lon="6.91715">
        <ele>2184.1</ele>
        <time>2018-04-21T05:43:24.000Z</time>
      </trkpt>
      <trkpt lat="44.53489" lon="6.91716">
        <ele>2187.04</ele>
        <time>2018-04-21T05:43:52.000Z</time>
      </trkpt>
      <trkpt lat="44.53506" lon="6.91712">
        <ele>2190.98</ele>
        <time>2018-04-21T05:44:32.000Z</time>
      </trkpt>
      <trkpt lat="44.53526" lon="6.91715">
        <ele>2194.68</ele>
        <time>2018-04-21T05:45:04.000Z</time>
      </trkpt>
      <trkpt lat="44.53544" lon="6.91718">
        <ele>2197.97</ele>
        <time>2018-04-21T05:45:28.000Z</time>
      </trkpt>
      <trkpt lat="44.53562" lon="6.91723">
        <ele>2201.61</ele>
        <time>2018-04-21T05:45:51.000Z</time>
      </trkpt>
      <trkpt lat="44.53581" lon="6.91739">
        <ele>2205.56</ele>
        <time>2018-04-21T05:46:19.000Z</time>
      </trkpt>
      <trkpt lat="44.53589" lon="6.91761">
        <ele>2208.79</ele>
        <time>2018-04-21T05:46:43.000Z</time>
      </trkpt>
      <trkpt lat="44.53596" lon="6.91787">
        <ele>2214.75</ele>
        <time>2018-04-21T05:47:15.000Z</time>
      </trkpt>
      <trkpt lat="44.53608" lon="6.91808">
        <ele>2220.4</ele>
        <time>2018-04-21T05:47:39.000Z</time>
      </trkpt>
      <trkpt lat="44.53621" lon="6.91828">
        <ele>2223.74</ele>
        <time>2018-04-21T05:48:03.000Z</time>
      </trkpt>
      <trkpt lat="44.53617" lon="6.91853">
        <ele>2228.42</ele>
        <time>2018-04-21T05:48:35.000Z</time>
      </trkpt>
      <trkpt lat="44.53625" lon="6.91878">
        <ele>2231.47</ele>
        <time>2018-04-21T05:49:03.000Z</time>
      </trkpt>
      <trkpt lat="44.53637" lon="6.91903">
        <ele>2234.87</ele>
        <time>2018-04-21T05:49:31.000Z</time>
      </trkpt>
      <trkpt lat="44.5365" lon="6.91922">
        <ele>2238.66</ele>
        <time>2018-04-21T05:49:55.000Z</time>
      </trkpt>
      <trkpt lat="44.53665" lon="6.91942">
        <ele>2243.35</ele>
        <time>2018-04-21T05:50:27.000Z</time>
      </trkpt>
      <trkpt lat="44.53679" lon="6.91963">
        <ele>2247.15</ele>
        <time>2018-04-21T05:50:55.000Z</time>
      </trkpt>
      <trkpt lat="44.53694" lon="6.91979">
        <ele>2251.67</ele>
        <time>2018-04-21T05:51:23.000Z</time>
      </trkpt>
      <trkpt lat="44.53712" lon="6.91988">
        <ele>2253.36</ele>
        <time>2018-04-21T05:51:59.000Z</time>
      </trkpt>
      <trkpt lat="44.53727" lon="6.92002">
        <ele>2255.64</ele>
        <time>2018-04-21T05:52:35.000Z</time>
      </trkpt>
      <trkpt lat="44.53743" lon="6.92017">
        <ele>2257.89</ele>
        <time>2018-04-21T05:53:03.000Z</time>
      </trkpt>
      <trkpt lat="44.5376" lon="6.92029">
        <ele>2259.97</ele>
        <time>2018-04-21T05:53:27.000Z</time>
      </trkpt>
      <trkpt lat="44.53773" lon="6.92012">
        <ele>2262.2</ele>
        <time>2018-04-21T05:53:55.000Z</time>
      </trkpt>
      <trkpt lat="44.53785" lon="6.91985">
        <ele>2265.34</ele>
        <time>2018-04-21T05:54:31.000Z</time>
      </trkpt>
      <trkpt lat="44.53793" lon="6.9196">
        <ele>2270.78</ele>
        <time>2018-04-21T05:54:55.000Z</time>
      </trkpt>
      <trkpt lat="44.53799" lon="6.91934">
        <ele>2277.19</ele>
        <time>2018-04-21T05:55:23.000Z</time>
      </trkpt>
      <trkpt lat="44.53808" lon="6.91909">
        <ele>2281.84</ele>
        <time>2018-04-21T05:55:51.000Z</time>
      </trkpt>
      <trkpt lat="44.53827" lon="6.91904">
        <ele>2283.96</ele>
        <time>2018-04-21T05:56:43.000Z</time>
      </trkpt>
      <trkpt lat="44.53844" lon="6.91893">
        <ele>2285.67</ele>
        <time>2018-04-21T05:57:07.000Z</time>
      </trkpt>
      <trkpt lat="44.53862" lon="6.91894">
        <ele>2288.98</ele>
        <time>2018-04-21T05:57:35.000Z</time>
      </trkpt>
      <trkpt lat="44.5388" lon="6.91904">
        <ele>2293.87</ele>
        <time>2018-04-21T05:58:07.000Z</time>
      </trkpt>
      <trkpt lat="44.53898" lon="6.91897">
        <ele>2299.45</ele>
        <time>2018-04-21T05:58:39.000Z</time>
      </trkpt>
      <trkpt lat="44.53916" lon="6.91884">
        <ele>2302.7</ele>
        <time>2018-04-21T05:59:03.000Z</time>
      </trkpt>
      <trkpt lat="44.53931" lon="6.91871">
        <ele>2308.26</ele>
        <time>2018-04-21T05:59:35.000Z</time>
      </trkpt>
      <trkpt lat="44.53946" lon="6.91886">
        <ele>2324.58</ele>
        <time>2018-04-21T06:05:16.000Z</time>
      </trkpt>
      <trkpt lat="44.53963" lon="6.91892">
        <ele>2328.39</ele>
        <time>2018-04-21T06:06:36.000Z</time>
      </trkpt>
      <trkpt lat="44.53976" lon="6.91911">
        <ele>2328.92</ele>
        <time>2018-04-21T06:07:04.000Z</time>
      </trkpt>
      <trkpt lat="44.53986" lon="6.91934">
        <ele>2328.29</ele>
        <time>2018-04-21T06:07:36.000Z</time>
      </trkpt>
      <trkpt lat="44.53998" lon="6.91954">
        <ele>2327.94</ele>
        <time>2018-04-21T06:08:04.000Z</time>
      </trkpt>
      <trkpt lat="44.54006" lon="6.91978">
        <ele>2327.75</ele>
        <time>2018-04-21T06:08:28.000Z</time>
      </trkpt>
      <trkpt lat="44.54002" lon="6.92003">
        <ele>2330.3</ele>
        <time>2018-04-21T06:08:48.000Z</time>
      </trkpt>
      <trkpt lat="44.54003" lon="6.92032">
        <ele>2336.99</ele>
        <time>2018-04-21T06:09:12.000Z</time>
      </trkpt>
      <trkpt lat="44.54003" lon="6.92061">
        <ele>2346.37</ele>
        <time>2018-04-21T06:09:40.000Z</time>
      </trkpt>
      <trkpt lat="44.54014" lon="6.92083">
        <ele>2357.18</ele>
        <time>2018-04-21T06:10:12.000Z</time>
      </trkpt>
      <trkpt lat="44.54031" lon="6.92095">
        <ele>2364.17</ele>
        <time>2018-04-21T06:10:40.000Z</time>
      </trkpt>
      <trkpt lat="44.5405" lon="6.92101">
        <ele>2369.81</ele>
        <time>2018-04-21T06:11:08.000Z</time>
      </trkpt>
      <trkpt lat="44.54066" lon="6.92114">
        <ele>2376</ele>
        <time>2018-04-21T06:11:40.000Z</time>
      </trkpt>
      <trkpt lat="44.54079" lon="6.92133">
        <ele>2380.74</ele>
        <time>2018-04-21T06:12:08.000Z</time>
      </trkpt>
      <trkpt lat="44.54095" lon="6.92148">
        <ele>2384.94</ele>
        <time>2018-04-21T06:12:36.000Z</time>
      </trkpt>
      <trkpt lat="44.54105" lon="6.9217">
        <ele>2388.74</ele>
        <time>2018-04-21T06:13:04.000Z</time>
      </trkpt>
      <trkpt lat="44.5412" lon="6.92188">
        <ele>2392.98</ele>
        <time>2018-04-21T06:13:36.000Z</time>
      </trkpt>
      <trkpt lat="44.54134" lon="6.9221">
        <ele>2397.06</ele>
        <time>2018-04-21T06:15:00.000Z</time>
      </trkpt>
      <trkpt lat="44.54148" lon="6.92228">
        <ele>2399.8</ele>
        <time>2018-04-21T06:17:44.000Z</time>
      </trkpt>
      <trkpt lat="44.5416" lon="6.92247">
        <ele>2404.41</ele>
        <time>2018-04-21T06:18:12.000Z</time>
      </trkpt>
      <trkpt lat="44.54176" lon="6.92266">
        <ele>2408.48</ele>
        <time>2018-04-21T06:18:40.000Z</time>
      </trkpt>
      <trkpt lat="44.5419" lon="6.92284">
        <ele>2412.9</ele>
        <time>2018-04-21T06:19:08.000Z</time>
      </trkpt>
      <trkpt lat="44.54203" lon="6.92302">
        <ele>2416.23</ele>
        <time>2018-04-21T06:19:32.000Z</time>
      </trkpt>
      <trkpt lat="44.54217" lon="6.92321">
        <ele>2420.93</ele>
        <time>2018-04-21T06:20:00.000Z</time>
      </trkpt>
      <trkpt lat="44.54219" lon="6.92346">
        <ele>2425.15</ele>
        <time>2018-04-21T06:20:24.000Z</time>
      </trkpt>
      <trkpt lat="44.54213" lon="6.92375">
        <ele>2429</ele>
        <time>2018-04-21T06:20:52.000Z</time>
      </trkpt>
      <trkpt lat="44.54222" lon="6.92398">
        <ele>2434.34</ele>
        <time>2018-04-21T06:21:32.000Z</time>
      </trkpt>
      <trkpt lat="44.54232" lon="6.9242">
        <ele>2440.57</ele>
        <time>2018-04-21T06:22:04.000Z</time>
      </trkpt>
      <trkpt lat="44.54247" lon="6.92437">
        <ele>2445.65</ele>
        <time>2018-04-21T06:22:31.000Z</time>
      </trkpt>
      <trkpt lat="44.54263" lon="6.92452">
        <ele>2450.74</ele>
        <time>2018-04-21T06:22:59.000Z</time>
      </trkpt>
      <trkpt lat="44.5427" lon="6.92475">
        <ele>2454.63</ele>
        <time>2018-04-21T06:23:23.000Z</time>
      </trkpt>
      <trkpt lat="44.54277" lon="6.92501">
        <ele>2458.55</ele>
        <time>2018-04-21T06:23:51.000Z</time>
      </trkpt>
      <trkpt lat="44.54285" lon="6.92525">
        <ele>2464.89</ele>
        <time>2018-04-21T06:24:23.000Z</time>
      </trkpt>
      <trkpt lat="44.54301" lon="6.92538">
        <ele>2470.43</ele>
        <time>2018-04-21T06:24:51.000Z</time>
      </trkpt>
      <trkpt lat="44.54308" lon="6.92562">
        <ele>2475.51</ele>
        <time>2018-04-21T06:25:19.000Z</time>
      </trkpt>
      <trkpt lat="44.54316" lon="6.92588">
        <ele>2480.22</ele>
        <time>2018-04-21T06:25:51.000Z</time>
      </trkpt>
      <trkpt lat="44.54317" lon="6.92613">
        <ele>2485.99</ele>
        <time>2018-04-21T06:27:07.000Z</time>
      </trkpt>
      <trkpt lat="44.54317" lon="6.9264">
        <ele>2491.03</ele>
        <time>2018-04-21T06:27:51.000Z</time>
      </trkpt>
      <trkpt lat="44.54312" lon="6.92665">
        <ele>2495.17</ele>
        <time>2018-04-21T06:28:23.000Z</time>
      </trkpt>
      <trkpt lat="44.54313" lon="6.92693">
        <ele>2499.91</ele>
        <time>2018-04-21T06:28:55.000Z</time>
      </trkpt>
      <trkpt lat="44.54313" lon="6.92719">
        <ele>2504.64</ele>
        <time>2018-04-21T06:29:27.000Z</time>
      </trkpt>
      <trkpt lat="44.54323" lon="6.92743">
        <ele>2511.76</ele>
        <time>2018-04-21T06:30:07.000Z</time>
      </trkpt>
      <trkpt lat="44.54335" lon="6.92763">
        <ele>2520.42</ele>
        <time>2018-04-21T06:31:03.000Z</time>
      </trkpt>
      <trkpt lat="44.54345" lon="6.92785">
        <ele>2525.82</ele>
        <time>2018-04-21T06:31:39.000Z</time>
      </trkpt>
      <trkpt lat="44.54358" lon="6.92804">
        <ele>2531.56</ele>
        <time>2018-04-21T06:32:15.000Z</time>
      </trkpt>
      <trkpt lat="44.54364" lon="6.92829">
        <ele>2539.4</ele>
        <time>2018-04-21T06:32:55.000Z</time>
      </trkpt>
      <trkpt lat="44.54383" lon="6.92833">
        <ele>2546.29</ele>
        <time>2018-04-21T06:33:39.000Z</time>
      </trkpt>
      <trkpt lat="44.54388" lon="6.92859">
        <ele>2555.23</ele>
        <time>2018-04-21T06:34:47.000Z</time>
      </trkpt>
      <trkpt lat="44.54384" lon="6.92884">
        <ele>2559.64</ele>
        <time>2018-04-21T06:35:15.000Z</time>
      </trkpt>
      <trkpt lat="44.54403" lon="6.92886">
        <ele>2565.95</ele>
        <time>2018-04-21T06:36:07.000Z</time>
      </trkpt>
      <trkpt lat="44.5439" lon="6.92906">
        <ele>2569.88</ele>
        <time>2018-04-21T06:36:55.000Z</time>
      </trkpt>
      <trkpt lat="44.54408" lon="6.92917">
        <ele>2573.11</ele>
        <time>2018-04-21T06:37:27.000Z</time>
      </trkpt>
      <trkpt lat="44.54424" lon="6.92903">
        <ele>2575.57</ele>
        <time>2018-04-21T06:37:59.000Z</time>
      </trkpt>
      <trkpt lat="44.5444" lon="6.92916">
        <ele>2579.22</ele>
        <time>2018-04-21T06:38:31.000Z</time>
      </trkpt>
      <trkpt lat="44.54445" lon="6.92944">
        <ele>2591.32</ele>
        <time>2018-04-21T06:40:32.000Z</time>
      </trkpt>
      <trkpt lat="44.54465" lon="6.92943">
        <ele>2604.44</ele>
        <time>2018-04-21T06:42:36.000Z</time>
      </trkpt>
      <trkpt lat="44.54486" lon="6.92945">
        <ele>2608.97</ele>
        <time>2018-04-21T06:43:24.000Z</time>
      </trkpt>
      <trkpt lat="44.54487" lon="6.92971">
        <ele>2617.36</ele>
        <time>2018-04-21T06:44:12.000Z</time>
      </trkpt>
      <trkpt lat="44.545" lon="6.92952">
        <ele>2621.34</ele>
        <time>2018-04-21T06:45:04.000Z</time>
      </trkpt>
      <trkpt lat="44.5452" lon="6.92949">
        <ele>2621.84</ele>
        <time>2018-04-21T06:45:36.000Z</time>
      </trkpt>
      <trkpt lat="44.54538" lon="6.9294">
        <ele>2624.98</ele>
        <time>2018-04-21T06:46:00.000Z</time>
      </trkpt>
      <trkpt lat="44.54546" lon="6.92963">
        <ele>2632.3</ele>
        <time>2018-04-21T06:46:24.000Z</time>
      </trkpt>
      <trkpt lat="44.5455" lon="6.92989">
        <ele>2640.57</ele>
        <time>2018-04-21T06:46:52.000Z</time>
      </trkpt>
      <trkpt lat="44.54566" lon="6.92978">
        <ele>2648.81</ele>
        <time>2018-04-21T06:48:24.000Z</time>
      </trkpt>
      <trkpt lat="44.54569" lon="6.93005">
        <ele>2659.37</ele>
        <time>2018-04-21T06:50:12.000Z</time>
      </trkpt>
      <trkpt lat="44.54587" lon="6.93001">
        <ele>2666.19</ele>
        <time>2018-04-21T06:52:04.000Z</time>
      </trkpt>
      <trkpt lat="44.54592" lon="6.93029">
        <ele>2671.13</ele>
        <time>2018-04-21T06:52:36.000Z</time>
      </trkpt>
      <trkpt lat="44.54607" lon="6.93015">
        <ele>2678.87</ele>
        <time>2018-04-21T06:53:44.000Z</time>
      </trkpt>
      <trkpt lat="44.54622" lon="6.93031">
        <ele>2693.2</ele>
        <time>2018-04-21T06:58:15.000Z</time>
      </trkpt>
      <trkpt lat="44.54621" lon="6.9306">
        <ele>2699.01</ele>
        <time>2018-04-21T07:00:11.000Z</time>
      </trkpt>
      <trkpt lat="44.54615" lon="6.93087">
        <ele>2703.35</ele>
        <time>2018-04-21T07:00:55.000Z</time>
      </trkpt>
      <trkpt lat="44.54612" lon="6.93113">
        <ele>2712.98</ele>
        <time>2018-04-21T07:08:15.000Z</time>
      </trkpt>
      <trkpt lat="44.5461" lon="6.93139">
        <ele>2717.46</ele>
        <time>2018-04-21T07:09:35.000Z</time>
      </trkpt>
      <trkpt lat="44.54606" lon="6.93164">
        <ele>2726.29</ele>
        <time>2018-04-21T07:12:43.000Z</time>
      </trkpt>
      <trkpt lat="44.54607" lon="6.9319">
        <ele>2729.98</ele>
        <time>2018-04-21T07:13:23.000Z</time>
      </trkpt>
      <trkpt lat="44.54605" lon="6.93216">
        <ele>2732.49</ele>
        <time>2018-04-21T07:13:51.000Z</time>
      </trkpt>
      <trkpt lat="44.546" lon="6.93243">
        <ele>2736.24</ele>
        <time>2018-04-21T07:14:23.000Z</time>
      </trkpt>
      <trkpt lat="44.54596" lon="6.93268">
        <ele>2740.44</ele>
        <time>2018-04-21T07:15:03.000Z</time>
      </trkpt>
      <trkpt lat="44.54588" lon="6.93293">
        <ele>2743.86</ele>
        <time>2018-04-21T07:15:31.000Z</time>
      </trkpt>
      <trkpt lat="44.54588" lon="6.93319">
        <ele>2750.3</ele>
        <time>2018-04-21T07:16:16.000Z</time>
      </trkpt>
      <trkpt lat="44.5458" lon="6.93342">
        <ele>2754.97</ele>
        <time>2018-04-21T07:16:44.000Z</time>
      </trkpt>
      <trkpt lat="44.54574" lon="6.93368">
        <ele>2759.46</ele>
        <time>2018-04-21T07:17:12.000Z</time>
      </trkpt>
      <trkpt lat="44.54568" lon="6.93394">
        <ele>2763.68</ele>
        <time>2018-04-21T07:17:36.000Z</time>
      </trkpt>
      <trkpt lat="44.54554" lon="6.93412">
        <ele>2770.04</ele>
        <time>2018-04-21T07:18:24.000Z</time>
      </trkpt>
      <trkpt lat="44.54537" lon="6.93426">
        <ele>2772.37</ele>
        <time>2018-04-21T07:18:44.000Z</time>
      </trkpt>
      <trkpt lat="44.54523" lon="6.93442">
        <ele>2773.76</ele>
        <time>2018-04-21T07:19:04.000Z</time>
      </trkpt>
      <trkpt lat="44.54509" lon="6.9346">
        <ele>2773.69</ele>
        <time>2018-04-21T07:19:28.000Z</time>
      </trkpt>
      <trkpt lat="44.54489" lon="6.9347">
        <ele>2774.09</ele>
        <time>2018-04-21T07:19:56.000Z</time>
      </trkpt>
      <trkpt lat="44.54469" lon="6.93473">
        <ele>2776.41</ele>
        <time>2018-04-21T07:20:24.000Z</time>
      </trkpt>
      <trkpt lat="44.54449" lon="6.93478">
        <ele>2780.57</ele>
        <time>2018-04-21T07:21:00.000Z</time>
      </trkpt>
      <trkpt lat="44.54438" lon="6.93501">
        <ele>2794.32</ele>
        <time>2018-04-21T07:21:52.000Z</time>
      </trkpt>
      <trkpt lat="44.54443" lon="6.93529">
        <ele>2803.02</ele>
        <time>2018-04-21T07:22:24.000Z</time>
      </trkpt>
      <trkpt lat="44.5445" lon="6.93553">
        <ele>2810.84</ele>
        <time>2018-04-21T07:22:52.000Z</time>
      </trkpt>
      <trkpt lat="44.54462" lon="6.93572">
        <ele>2817.79</ele>
        <time>2018-04-21T07:23:24.000Z</time>
      </trkpt>
      <trkpt lat="44.54473" lon="6.93592">
        <ele>2822.56</ele>
        <time>2018-04-21T07:23:52.000Z</time>
      </trkpt>
      <trkpt lat="44.54492" lon="6.93608">
        <ele>2829.64</ele>
        <time>2018-04-21T07:24:24.000Z</time>
      </trkpt>
      <trkpt lat="44.54506" lon="6.93626">
        <ele>2839.05</ele>
        <time>2018-04-21T07:25:12.000Z</time>
      </trkpt>
      <trkpt lat="44.5452" lon="6.93643">
        <ele>2843.76</ele>
        <time>2018-04-21T07:25:40.000Z</time>
      </trkpt>
      <trkpt lat="44.54538" lon="6.93656">
        <ele>2846.88</ele>
        <time>2018-04-21T07:26:08.000Z</time>
      </trkpt>
      <trkpt lat="44.54557" lon="6.93662">
        <ele>2850.39</ele>
        <time>2018-04-21T07:26:36.000Z</time>
      </trkpt>
      <trkpt lat="44.54544" lon="6.93682">
        <ele>2852</ele>
        <time>2018-04-21T07:27:00.000Z</time>
      </trkpt>
      <trkpt lat="44.54528" lon="6.93697">
        <ele>2856.83</ele>
        <time>2018-04-21T07:27:44.000Z</time>
      </trkpt>
      <trkpt lat="44.54514" lon="6.93713">
        <ele>2862.57</ele>
        <time>2018-04-21T07:28:08.000Z</time>
      </trkpt>
      <trkpt lat="44.54512" lon="6.93739">
        <ele>2870.99</ele>
        <time>2018-04-21T07:29:00.000Z</time>
      </trkpt>
      <trkpt lat="44.54529" lon="6.93748">
        <ele>2876.44</ele>
        <time>2018-04-21T07:29:36.000Z</time>
      </trkpt>
      <trkpt lat="44.54549" lon="6.93752">
        <ele>2879</ele>
        <time>2018-04-21T07:30:00.000Z</time>
      </trkpt>
      <trkpt lat="44.54568" lon="6.93757">
        <ele>2882.75</ele>
        <time>2018-04-21T07:30:32.000Z</time>
      </trkpt>
      <trkpt lat="44.54557" lon="6.93781">
        <ele>2887.88</ele>
        <time>2018-04-21T07:31:20.000Z</time>
      </trkpt>
      <trkpt lat="44.54541" lon="6.93795">
        <ele>2891.57</ele>
        <time>2018-04-21T07:31:52.000Z</time>
      </trkpt>
      <trkpt lat="44.54527" lon="6.9381">
        <ele>2896.38</ele>
        <time>2018-04-21T07:32:24.000Z</time>
      </trkpt>
      <trkpt lat="44.54537" lon="6.93832">
        <ele>2905.46</ele>
        <time>2018-04-21T07:33:40.000Z</time>
      </trkpt>
      <trkpt lat="44.5456" lon="6.93835">
        <ele>2910.15</ele>
        <time>2018-04-21T07:34:24.000Z</time>
      </trkpt>
      <trkpt lat="44.54581" lon="6.93837">
        <ele>2912.39</ele>
        <time>2018-04-21T07:34:47.000Z</time>
      </trkpt>
      <trkpt lat="44.54599" lon="6.9383">
        <ele>2917.1</ele>
        <time>2018-04-21T07:35:43.000Z</time>
      </trkpt>
      <trkpt lat="44.54617" lon="6.93841">
        <ele>2937.49</ele>
        <time>2018-04-21T07:43:48.000Z</time>
      </trkpt>
      <trkpt lat="44.5463" lon="6.93862">
        <ele>2939.12</ele>
        <time>2018-04-21T07:45:21.000Z</time>
      </trkpt>
      <trkpt lat="44.54648" lon="6.93868">
        <ele>2936.38</ele>
        <time>2018-04-21T07:46:01.000Z</time>
      </trkpt>
      <trkpt lat="44.54631" lon="6.93859">
        <ele>2934.8</ele>
        <time>2018-04-21T07:50:45.000Z</time>
      </trkpt>
      <trkpt lat="44.54618" lon="6.9384">
        <ele>2938.01</ele>
        <time>2018-04-21T07:51:25.000Z</time>
      </trkpt>
      <trkpt lat="44.54639" lon="6.93874">
        <ele>2939.21</ele>
        <time>2018-04-21T07:58:18.000Z</time>
      </trkpt>
      <trkpt lat="44.54657" lon="6.93876">
        <ele>2934.61</ele>
        <time>2018-04-21T08:00:22.000Z</time>
      </trkpt>
      <trkpt lat="44.54681" lon="6.93873">
        <ele>2931.3</ele>
        <time>2018-04-21T08:00:34.000Z</time>
      </trkpt>
      <trkpt lat="44.54702" lon="6.93853">
        <ele>2924.86</ele>
        <time>2018-04-21T08:00:46.000Z</time>
      </trkpt>
      <trkpt lat="44.54726" lon="6.93832">
        <ele>2900.26</ele>
        <time>2018-04-21T08:00:54.000Z</time>
      </trkpt>
      <trkpt lat="44.54756" lon="6.93803">
        <ele>2874.02</ele>
        <time>2018-04-21T08:01:02.000Z</time>
      </trkpt>
      <trkpt lat="44.54773" lon="6.93786">
        <ele>2860.02</ele>
        <time>2018-04-21T08:01:06.000Z</time>
      </trkpt>
      <trkpt lat="44.54788" lon="6.93764">
        <ele>2845.93</ele>
        <time>2018-04-21T08:01:10.000Z</time>
      </trkpt>
      <trkpt lat="44.54804" lon="6.93743">
        <ele>2832.67</ele>
        <time>2018-04-21T08:01:14.000Z</time>
      </trkpt>
      <trkpt lat="44.54819" lon="6.93728">
        <ele>2822.78</ele>
        <time>2018-04-21T08:02:06.000Z</time>
      </trkpt>
      <trkpt lat="44.54847" lon="6.93703">
        <ele>2808.58</ele>
        <time>2018-04-21T08:04:26.000Z</time>
      </trkpt>
      <trkpt lat="44.54876" lon="6.93685">
        <ele>2800.11</ele>
        <time>2018-04-21T08:04:30.000Z</time>
      </trkpt>
      <trkpt lat="44.54909" lon="6.93683">
        <ele>2792.34</ele>
        <time>2018-04-21T08:04:34.000Z</time>
      </trkpt>
      <trkpt lat="44.54946" lon="6.93675">
        <ele>2782.57</ele>
        <time>2018-04-21T08:04:38.000Z</time>
      </trkpt>
      <trkpt lat="44.54974" lon="6.93658">
        <ele>2771.88</ele>
        <time>2018-04-21T08:04:42.000Z</time>
      </trkpt>
      <trkpt lat="44.54999" lon="6.93626">
        <ele>2763.06</ele>
        <time>2018-04-21T08:04:46.000Z</time>
      </trkpt>
      <trkpt lat="44.55008" lon="6.93586">
        <ele>2754.95</ele>
        <time>2018-04-21T08:04:50.000Z</time>
      </trkpt>
      <trkpt lat="44.55032" lon="6.93554">
        <ele>2748.18</ele>
        <time>2018-04-21T08:04:54.000Z</time>
      </trkpt>
      <trkpt lat="44.55042" lon="6.93516">
        <ele>2742.55</ele>
        <time>2018-04-21T08:04:58.000Z</time>
      </trkpt>
      <trkpt lat="44.55057" lon="6.93493">
        <ele>2736.45</ele>
        <time>2018-04-21T08:05:02.000Z</time>
      </trkpt>
      <trkpt lat="44.55074" lon="6.9347">
        <ele>2729.75</ele>
        <time>2018-04-21T08:05:06.000Z</time>
      </trkpt>
      <trkpt lat="44.55089" lon="6.93448">
        <ele>2724.18</ele>
        <time>2018-04-21T08:05:10.000Z</time>
      </trkpt>
      <trkpt lat="44.55101" lon="6.93424">
        <ele>2719.91</ele>
        <time>2018-04-21T08:05:14.000Z</time>
      </trkpt>
      <trkpt lat="44.55116" lon="6.93395">
        <ele>2716.76</ele>
        <time>2018-04-21T08:05:18.000Z</time>
      </trkpt>
      <trkpt lat="44.55133" lon="6.93379">
        <ele>2714.72</ele>
        <time>2018-04-21T08:05:22.000Z</time>
      </trkpt>
      <trkpt lat="44.55153" lon="6.93387">
        <ele>2712.45</ele>
        <time>2018-04-21T08:05:26.000Z</time>
      </trkpt>
      <trkpt lat="44.55177" lon="6.9338">
        <ele>2707.5</ele>
        <time>2018-04-21T08:05:30.000Z</time>
      </trkpt>
      <trkpt lat="44.55194" lon="6.93355">
        <ele>2701.18</ele>
        <time>2018-04-21T08:05:34.000Z</time>
      </trkpt>
      <trkpt lat="44.55213" lon="6.93343">
        <ele>2694.45</ele>
        <time>2018-04-21T08:05:38.000Z</time>
      </trkpt>
      <trkpt lat="44.55236" lon="6.93348">
        <ele>2687.82</ele>
        <time>2018-04-21T08:05:42.000Z</time>
      </trkpt>
      <trkpt lat="44.55265" lon="6.93332">
        <ele>2681.41</ele>
        <time>2018-04-21T08:05:46.000Z</time>
      </trkpt>
      <trkpt lat="44.55291" lon="6.93326">
        <ele>2674.07</ele>
        <time>2018-04-21T08:05:50.000Z</time>
      </trkpt>
      <trkpt lat="44.55318" lon="6.93319">
        <ele>2665.2</ele>
        <time>2018-04-21T08:05:54.000Z</time>
      </trkpt>
      <trkpt lat="44.55346" lon="6.93306">
        <ele>2655.86</ele>
        <time>2018-04-21T08:05:58.000Z</time>
      </trkpt>
      <trkpt lat="44.55368" lon="6.9331">
        <ele>2645.83</ele>
        <time>2018-04-21T08:06:02.000Z</time>
      </trkpt>
      <trkpt lat="44.55381" lon="6.93332">
        <ele>2632.07</ele>
        <time>2018-04-21T08:07:46.000Z</time>
      </trkpt>
      <trkpt lat="44.55403" lon="6.93365">
        <ele>2613.45</ele>
        <time>2018-04-21T08:07:58.000Z</time>
      </trkpt>
      <trkpt lat="44.5542" lon="6.93389">
        <ele>2604.95</ele>
        <time>2018-04-21T08:08:02.000Z</time>
      </trkpt>
      <trkpt lat="44.55438" lon="6.93427">
        <ele>2598.7</ele>
        <time>2018-04-21T08:08:06.000Z</time>
      </trkpt>
      <trkpt lat="44.55453" lon="6.93477">
        <ele>2593.85</ele>
        <time>2018-04-21T08:08:10.000Z</time>
      </trkpt>
      <trkpt lat="44.55469" lon="6.93528">
        <ele>2589.77</ele>
        <time>2018-04-21T08:08:14.000Z</time>
      </trkpt>
      <trkpt lat="44.55495" lon="6.93551">
        <ele>2587.33</ele>
        <time>2018-04-21T08:08:18.000Z</time>
      </trkpt>
      <trkpt lat="44.55515" lon="6.93558">
        <ele>2585.05</ele>
        <time>2018-04-21T08:08:22.000Z</time>
      </trkpt>
      <trkpt lat="44.55537" lon="6.93568">
        <ele>2581.23</ele>
        <time>2018-04-21T08:08:26.000Z</time>
      </trkpt>
      <trkpt lat="44.55561" lon="6.93584">
        <ele>2578.01</ele>
        <time>2018-04-21T08:08:30.000Z</time>
      </trkpt>
      <trkpt lat="44.55583" lon="6.93597">
        <ele>2575.52</ele>
        <time>2018-04-21T08:08:34.000Z</time>
      </trkpt>
      <trkpt lat="44.55608" lon="6.93621">
        <ele>2573.3</ele>
        <time>2018-04-21T08:08:38.000Z</time>
      </trkpt>
      <trkpt lat="44.55632" lon="6.93646">
        <ele>2571.26</ele>
        <time>2018-04-21T08:08:42.000Z</time>
      </trkpt>
      <trkpt lat="44.55652" lon="6.93665">
        <ele>2568.08</ele>
        <time>2018-04-21T08:08:46.000Z</time>
      </trkpt>
      <trkpt lat="44.55671" lon="6.93689">
        <ele>2563.4</ele>
        <time>2018-04-21T08:08:50.000Z</time>
      </trkpt>
      <trkpt lat="44.55688" lon="6.93706">
        <ele>2559.48</ele>
        <time>2018-04-21T08:08:54.000Z</time>
      </trkpt>
      <trkpt lat="44.55704" lon="6.93719">
        <ele>2557.27</ele>
        <time>2018-04-21T08:09:02.000Z</time>
      </trkpt>
      <trkpt lat="44.55719" lon="6.93741">
        <ele>2556.48</ele>
        <time>2018-04-21T08:09:10.000Z</time>
      </trkpt>
      <trkpt lat="44.55739" lon="6.93768">
        <ele>2548.79</ele>
        <time>2018-04-21T08:10:02.000Z</time>
      </trkpt>
      <trkpt lat="44.5576" lon="6.93793">
        <ele>2543.35</ele>
        <time>2018-04-21T08:10:06.000Z</time>
      </trkpt>
      <trkpt lat="44.55777" lon="6.93805">
        <ele>2538.99</ele>
        <time>2018-04-21T08:10:10.000Z</time>
      </trkpt>
      <trkpt lat="44.55794" lon="6.93821">
        <ele>2537.3</ele>
        <time>2018-04-21T08:10:14.000Z</time>
      </trkpt>
      <trkpt lat="44.55793" lon="6.93854">
        <ele>2536.12</ele>
        <time>2018-04-21T08:10:30.000Z</time>
      </trkpt>
      <trkpt lat="44.55795" lon="6.93884">
        <ele>2535.94</ele>
        <time>2018-04-21T08:10:38.000Z</time>
      </trkpt>
      <trkpt lat="44.55795" lon="6.93926">
        <ele>2536.03</ele>
        <time>2018-04-21T08:10:46.000Z</time>
      </trkpt>
      <trkpt lat="44.55783" lon="6.93966">
        <ele>2534.95</ele>
        <time>2018-04-21T08:10:54.000Z</time>
      </trkpt>
      <trkpt lat="44.55776" lon="6.93997">
        <ele>2532.6</ele>
        <time>2018-04-21T08:11:14.000Z</time>
      </trkpt>
      <trkpt lat="44.55787" lon="6.94031">
        <ele>2527.07</ele>
        <time>2018-04-21T08:12:41.000Z</time>
      </trkpt>
      <trkpt lat="44.55801" lon="6.94052">
        <ele>2524.54</ele>
        <time>2018-04-21T08:12:45.000Z</time>
      </trkpt>
      <trkpt lat="44.55823" lon="6.94065">
        <ele>2521.7</ele>
        <time>2018-04-21T08:12:49.000Z</time>
      </trkpt>
      <trkpt lat="44.55848" lon="6.9407">
        <ele>2519.58</ele>
        <time>2018-04-21T08:12:53.000Z</time>
      </trkpt>
      <trkpt lat="44.55866" lon="6.94082">
        <ele>2517.46</ele>
        <time>2018-04-21T08:12:57.000Z</time>
      </trkpt>
      <trkpt lat="44.55888" lon="6.94099">
        <ele>2514.86</ele>
        <time>2018-04-21T08:13:01.000Z</time>
      </trkpt>
      <trkpt lat="44.55892" lon="6.9416">
        <ele>2507.14</ele>
        <time>2018-04-21T08:13:09.000Z</time>
      </trkpt>
      <trkpt lat="44.55906" lon="6.94194">
        <ele>2501.45</ele>
        <time>2018-04-21T08:13:13.000Z</time>
      </trkpt>
      <trkpt lat="44.55902" lon="6.94226">
        <ele>2495.16</ele>
        <time>2018-04-21T08:13:17.000Z</time>
      </trkpt>
      <trkpt lat="44.55878" lon="6.94273">
        <ele>2486.39</ele>
        <time>2018-04-21T08:13:25.000Z</time>
      </trkpt>
      <trkpt lat="44.55864" lon="6.94298">
        <ele>2479.82</ele>
        <time>2018-04-21T08:13:29.000Z</time>
      </trkpt>
      <trkpt lat="44.5588" lon="6.94321">
        <ele>2470.36</ele>
        <time>2018-04-21T08:13:37.000Z</time>
      </trkpt>
      <trkpt lat="44.55898" lon="6.94336">
        <ele>2467.02</ele>
        <time>2018-04-21T08:13:41.000Z</time>
      </trkpt>
      <trkpt lat="44.55931" lon="6.94348">
        <ele>2461.35</ele>
        <time>2018-04-21T08:13:49.000Z</time>
      </trkpt>
      <trkpt lat="44.55948" lon="6.94366">
        <ele>2457.39</ele>
        <time>2018-04-21T08:14:17.000Z</time>
      </trkpt>
      <trkpt lat="44.5598" lon="6.94354">
        <ele>2442.97</ele>
        <time>2018-04-21T08:15:17.000Z</time>
      </trkpt>
      <trkpt lat="44.56007" lon="6.94343">
        <ele>2435.56</ele>
        <time>2018-04-21T08:15:21.000Z</time>
      </trkpt>
      <trkpt lat="44.56025" lon="6.94337">
        <ele>2432.18</ele>
        <time>2018-04-21T08:15:25.000Z</time>
      </trkpt>
      <trkpt lat="44.56044" lon="6.94333">
        <ele>2427.61</ele>
        <time>2018-04-21T08:15:29.000Z</time>
      </trkpt>
      <trkpt lat="44.56063" lon="6.94342">
        <ele>2423.77</ele>
        <time>2018-04-21T08:15:33.000Z</time>
      </trkpt>
      <trkpt lat="44.56086" lon="6.94365">
        <ele>2419.84</ele>
        <time>2018-04-21T08:15:37.000Z</time>
      </trkpt>
      <trkpt lat="44.56116" lon="6.94387">
        <ele>2415.8</ele>
        <time>2018-04-21T08:15:41.000Z</time>
      </trkpt>
      <trkpt lat="44.56134" lon="6.94407">
        <ele>2411.43</ele>
        <time>2018-04-21T08:15:45.000Z</time>
      </trkpt>
      <trkpt lat="44.56139" lon="6.94437">
        <ele>2406.22</ele>
        <time>2018-04-21T08:15:49.000Z</time>
      </trkpt>
      <trkpt lat="44.5614" lon="6.94482">
        <ele>2401.68</ele>
        <time>2018-04-21T08:15:53.000Z</time>
      </trkpt>
      <trkpt lat="44.56147" lon="6.9453">
        <ele>2395.74</ele>
        <time>2018-04-21T08:15:57.000Z</time>
      </trkpt>
      <trkpt lat="44.56155" lon="6.94574">
        <ele>2389.75</ele>
        <time>2018-04-21T08:16:01.000Z</time>
      </trkpt>
      <trkpt lat="44.56164" lon="6.946">
        <ele>2384.94</ele>
        <time>2018-04-21T08:16:05.000Z</time>
      </trkpt>
      <trkpt lat="44.56177" lon="6.94626">
        <ele>2379.72</ele>
        <time>2018-04-21T08:16:13.000Z</time>
      </trkpt>
      <trkpt lat="44.5621" lon="6.94649">
        <ele>2370.55</ele>
        <time>2018-04-21T08:16:21.000Z</time>
      </trkpt>
      <trkpt lat="44.56237" lon="6.9468">
        <ele>2360.68</ele>
        <time>2018-04-21T08:16:29.000Z</time>
      </trkpt>
      <trkpt lat="44.56258" lon="6.94701">
        <ele>2355.55</ele>
        <time>2018-04-21T08:16:33.000Z</time>
      </trkpt>
      <trkpt lat="44.56272" lon="6.94726">
        <ele>2350.98</ele>
        <time>2018-04-21T08:16:37.000Z</time>
      </trkpt>
      <trkpt lat="44.56281" lon="6.94759">
        <ele>2346.33</ele>
        <time>2018-04-21T08:16:41.000Z</time>
      </trkpt>
      <trkpt lat="44.56293" lon="6.94785">
        <ele>2341.19</ele>
        <time>2018-04-21T08:16:45.000Z</time>
      </trkpt>
      <trkpt lat="44.56305" lon="6.94806">
        <ele>2336.21</ele>
        <time>2018-04-21T08:16:49.000Z</time>
      </trkpt>
      <trkpt lat="44.56324" lon="6.9481">
        <ele>2333.09</ele>
        <time>2018-04-21T08:17:29.000Z</time>
      </trkpt>
      <trkpt lat="44.56345" lon="6.94813">
        <ele>2331</ele>
        <time>2018-04-21T08:19:05.000Z</time>
      </trkpt>
      <trkpt lat="44.56363" lon="6.94818">
        <ele>2331</ele>
        <time>2018-04-21T08:19:13.000Z</time>
      </trkpt>
      <trkpt lat="44.56395" lon="6.94823">
        <ele>2330.02</ele>
        <time>2018-04-21T08:19:21.000Z</time>
      </trkpt>
      <trkpt lat="44.56413" lon="6.94839">
        <ele>2329.12</ele>
        <time>2018-04-21T08:19:29.000Z</time>
      </trkpt>
      <trkpt lat="44.56443" lon="6.94831">
        <ele>2325.2</ele>
        <time>2018-04-21T08:19:41.000Z</time>
      </trkpt>
      <trkpt lat="44.56464" lon="6.94809">
        <ele>2323.55</ele>
        <time>2018-04-21T08:19:49.000Z</time>
      </trkpt>
      <trkpt lat="44.56484" lon="6.94827">
        <ele>2317.03</ele>
        <time>2018-04-21T08:20:25.000Z</time>
      </trkpt>
      <trkpt lat="44.56485" lon="6.94867">
        <ele>2311.87</ele>
        <time>2018-04-21T08:20:41.000Z</time>
      </trkpt>
      <trkpt lat="44.56484" lon="6.94901">
        <ele>2302.21</ele>
        <time>2018-04-21T08:21:09.000Z</time>
      </trkpt>
      <trkpt lat="44.56483" lon="6.94932">
        <ele>2293.16</ele>
        <time>2018-04-21T08:21:13.000Z</time>
      </trkpt>
      <trkpt lat="44.56469" lon="6.94957">
        <ele>2282.84</ele>
        <time>2018-04-21T08:21:21.000Z</time>
      </trkpt>
      <trkpt lat="44.56487" lon="6.94971">
        <ele>2278.14</ele>
        <time>2018-04-21T08:21:45.000Z</time>
      </trkpt>
      <trkpt lat="44.56487" lon="6.94998">
        <ele>2274.67</ele>
        <time>2018-04-21T08:22:05.000Z</time>
      </trkpt>
      <trkpt lat="44.56505" lon="6.95024">
        <ele>2270.11</ele>
        <time>2018-04-21T08:22:13.000Z</time>
      </trkpt>
      <trkpt lat="44.5652" lon="6.9504">
        <ele>2267.17</ele>
        <time>2018-04-21T08:22:21.000Z</time>
      </trkpt>
      <trkpt lat="44.56552" lon="6.95065">
        <ele>2254.37</ele>
        <time>2018-04-21T08:22:29.000Z</time>
      </trkpt>
      <trkpt lat="44.56572" lon="6.95072">
        <ele>2250.89</ele>
        <time>2018-04-21T08:22:33.000Z</time>
      </trkpt>
      <trkpt lat="44.56593" lon="6.95069">
        <ele>2249.33</ele>
        <time>2018-04-21T08:22:57.000Z</time>
      </trkpt>
      <trkpt lat="44.56614" lon="6.95083">
        <ele>2249.63</ele>
        <time>2018-04-21T08:23:09.000Z</time>
      </trkpt>
      <trkpt lat="44.56636" lon="6.95111">
        <ele>2247.44</ele>
        <time>2018-04-21T08:23:21.000Z</time>
      </trkpt>
      <trkpt lat="44.56649" lon="6.95133">
        <ele>2242.86</ele>
        <time>2018-04-21T08:23:29.000Z</time>
      </trkpt>
      <trkpt lat="44.56664" lon="6.95148">
        <ele>2237.19</ele>
        <time>2018-04-21T08:23:49.000Z</time>
      </trkpt>
      <trkpt lat="44.5669" lon="6.95153">
        <ele>2230.58</ele>
        <time>2018-04-21T08:24:09.000Z</time>
      </trkpt>
      <trkpt lat="44.56717" lon="6.95149">
        <ele>2228.66</ele>
        <time>2018-04-21T08:24:17.000Z</time>
      </trkpt>
      <trkpt lat="44.56739" lon="6.95137">
        <ele>2225.94</ele>
        <time>2018-04-21T08:24:33.000Z</time>
      </trkpt>
      <trkpt lat="44.56758" lon="6.95138">
        <ele>2221.04</ele>
        <time>2018-04-21T08:24:53.000Z</time>
      </trkpt>
      <trkpt lat="44.56776" lon="6.95146">
        <ele>2217.14</ele>
        <time>2018-04-21T08:25:17.000Z</time>
      </trkpt>
      <trkpt lat="44.568" lon="6.95145">
        <ele>2202.8</ele>
        <time>2018-04-21T08:25:53.000Z</time>
      </trkpt>
      <trkpt lat="44.56818" lon="6.95136">
        <ele>2201.9</ele>
        <time>2018-04-21T08:25:57.000Z</time>
      </trkpt>
      <trkpt lat="44.56837" lon="6.95122">
        <ele>2196.06</ele>
        <time>2018-04-21T08:26:01.000Z</time>
      </trkpt>
      <trkpt lat="44.56853" lon="6.95109">
        <ele>2190.38</ele>
        <time>2018-04-21T08:26:05.000Z</time>
      </trkpt>
      <trkpt lat="44.56874" lon="6.95101">
        <ele>2186.46</ele>
        <time>2018-04-21T08:26:13.000Z</time>
      </trkpt>
      <trkpt lat="44.56891" lon="6.95119">
        <ele>2176.14</ele>
        <time>2018-04-21T08:27:21.000Z</time>
      </trkpt>
      <trkpt lat="44.56905" lon="6.95155">
        <ele>2166.2</ele>
        <time>2018-04-21T08:27:53.000Z</time>
      </trkpt>
      <trkpt lat="44.56915" lon="6.95182">
        <ele>2163.42</ele>
        <time>2018-04-21T08:27:57.000Z</time>
      </trkpt>
      <trkpt lat="44.5692" lon="6.95157">
        <ele>2148.04</ele>
        <time>2018-04-21T08:29:50.000Z</time>
      </trkpt>
      <trkpt lat="44.5694" lon="6.95156">
        <ele>2144.16</ele>
        <time>2018-04-21T08:29:54.000Z</time>
      </trkpt>
      <trkpt lat="44.5696" lon="6.95149">
        <ele>2139.08</ele>
        <time>2018-04-21T08:29:58.000Z</time>
      </trkpt>
      <trkpt lat="44.56993" lon="6.95141">
        <ele>2135.37</ele>
        <time>2018-04-21T08:30:06.000Z</time>
      </trkpt>
      <trkpt lat="44.5703" lon="6.95146">
        <ele>2122.58</ele>
        <time>2018-04-21T08:30:14.000Z</time>
      </trkpt>
      <trkpt lat="44.57049" lon="6.95151">
        <ele>2117.49</ele>
        <time>2018-04-21T08:30:18.000Z</time>
      </trkpt>
      <trkpt lat="44.57066" lon="6.95163">
        <ele>2112.95</ele>
        <time>2018-04-21T08:30:22.000Z</time>
      </trkpt>
      <trkpt lat="44.57088" lon="6.95163">
        <ele>2110.64</ele>
        <time>2018-04-21T08:30:30.000Z</time>
      </trkpt>
      <trkpt lat="44.57115" lon="6.9515">
        <ele>2108.62</ele>
        <time>2018-04-21T08:30:38.000Z</time>
      </trkpt>
      <trkpt lat="44.5714" lon="6.95166">
        <ele>2109.83</ele>
        <time>2018-04-21T08:30:42.000Z</time>
      </trkpt>
      <trkpt lat="44.5715" lon="6.95201">
        <ele>2111.02</ele>
        <time>2018-04-21T08:30:50.000Z</time>
      </trkpt>
      <trkpt lat="44.57154" lon="6.95237">
        <ele>2111.05</ele>
        <time>2018-04-21T08:30:58.000Z</time>
      </trkpt>
      <trkpt lat="44.57159" lon="6.95262">
        <ele>2107.63</ele>
        <time>2018-04-21T08:32:30.000Z</time>
      </trkpt>
      <trkpt lat="44.57166" lon="6.95288">
        <ele>2102.82</ele>
        <time>2018-04-21T08:32:38.000Z</time>
      </trkpt>
      <trkpt lat="44.5717" lon="6.95314">
        <ele>2097.53</ele>
        <time>2018-04-21T08:32:42.000Z</time>
      </trkpt>
      <trkpt lat="44.57178" lon="6.95364">
        <ele>2090.68</ele>
        <time>2018-04-21T08:32:50.000Z</time>
      </trkpt>
      <trkpt lat="44.57185" lon="6.95391">
        <ele>2088.64</ele>
        <time>2018-04-21T08:32:54.000Z</time>
      </trkpt>
      <trkpt lat="44.5719" lon="6.95417">
        <ele>2086.53</ele>
        <time>2018-04-21T08:32:58.000Z</time>
      </trkpt>
      <trkpt lat="44.57192" lon="6.95444">
        <ele>2084.29</ele>
        <time>2018-04-21T08:33:02.000Z</time>
      </trkpt>
      <trkpt lat="44.57194" lon="6.95482">
        <ele>2081.42</ele>
        <time>2018-04-21T08:33:06.000Z</time>
      </trkpt>
      <trkpt lat="44.57198" lon="6.95517">
        <ele>2078.31</ele>
        <time>2018-04-21T08:33:10.000Z</time>
      </trkpt>
      <trkpt lat="44.57204" lon="6.95546">
        <ele>2075.46</ele>
        <time>2018-04-21T08:33:14.000Z</time>
      </trkpt>
      <trkpt lat="44.57212" lon="6.95575">
        <ele>2072.75</ele>
        <time>2018-04-21T08:33:18.000Z</time>
      </trkpt>
      <trkpt lat="44.57218" lon="6.95604">
        <ele>2069.88</ele>
        <time>2018-04-21T08:33:22.000Z</time>
      </trkpt>
      <trkpt lat="44.57222" lon="6.95628">
        <ele>2067.19</ele>
        <time>2018-04-21T08:33:26.000Z</time>
      </trkpt>
      <trkpt lat="44.57227" lon="6.95667">
        <ele>2064.56</ele>
        <time>2018-04-21T08:33:34.000Z</time>
      </trkpt>
      <trkpt lat="44.57231" lon="6.95693">
        <ele>2063.34</ele>
        <time>2018-04-21T08:33:42.000Z</time>
      </trkpt>
      <trkpt lat="44.57235" lon="6.9572">
        <ele>2060.57</ele>
        <time>2018-04-21T08:34:02.000Z</time>
      </trkpt>
      <trkpt lat="44.57241" lon="6.95757">
        <ele>2056.06</ele>
        <time>2018-04-21T08:34:10.000Z</time>
      </trkpt>
      <trkpt lat="44.57263" lon="6.95779">
        <ele>2050.84</ele>
        <time>2018-04-21T08:34:18.000Z</time>
      </trkpt>
      <trkpt lat="44.57286" lon="6.95775">
        <ele>2048.76</ele>
        <time>2018-04-21T08:34:26.000Z</time>
      </trkpt>
      <trkpt lat="44.57304" lon="6.95767">
        <ele>2047.12</ele>
        <time>2018-04-21T08:34:34.000Z</time>
      </trkpt>
      <trkpt lat="44.57325" lon="6.95788">
        <ele>2043.02</ele>
        <time>2018-04-21T08:34:42.000Z</time>
      </trkpt>
      <trkpt lat="44.57338" lon="6.95812">
        <ele>2028.8</ele>
        <time>2018-04-21T08:36:58.000Z</time>
      </trkpt>
      <trkpt lat="44.57363" lon="6.95847">
        <ele>2023.04</ele>
        <time>2018-04-21T08:37:06.000Z</time>
      </trkpt>
      <trkpt lat="44.57383" lon="6.95869">
        <ele>2020.36</ele>
        <time>2018-04-21T08:37:10.000Z</time>
      </trkpt>
      <trkpt lat="44.574" lon="6.95893">
        <ele>2016.92</ele>
        <time>2018-04-21T08:37:14.000Z</time>
      </trkpt>
      <trkpt lat="44.57403" lon="6.95934">
        <ele>2010.42</ele>
        <time>2018-04-21T08:37:22.000Z</time>
      </trkpt>
      <trkpt lat="44.57407" lon="6.9596">
        <ele>2005.24</ele>
        <time>2018-04-21T08:37:26.000Z</time>
      </trkpt>
      <trkpt lat="44.57417" lon="6.95981">
        <ele>2000.45</ele>
        <time>2018-04-21T08:37:30.000Z</time>
      </trkpt>
      <trkpt lat="44.5743" lon="6.96005">
        <ele>1996.32</ele>
        <time>2018-04-21T08:37:34.000Z</time>
      </trkpt>
      <trkpt lat="44.57446" lon="6.96023">
        <ele>1991.57</ele>
        <time>2018-04-21T08:37:46.000Z</time>
      </trkpt>
      <trkpt lat="44.57466" lon="6.96035">
        <ele>1986.58</ele>
        <time>2018-04-21T08:37:54.000Z</time>
      </trkpt>
      <trkpt lat="44.57482" lon="6.96046">
        <ele>1984.48</ele>
        <time>2018-04-21T08:38:02.000Z</time>
      </trkpt>
      <trkpt lat="44.57479" lon="6.96083">
        <ele>1981.08</ele>
        <time>2018-04-21T08:39:22.000Z</time>
      </trkpt>
      <trkpt lat="44.57485" lon="6.96117">
        <ele>1978.14</ele>
        <time>2018-04-21T08:39:30.000Z</time>
      </trkpt>
      <trkpt lat="44.57494" lon="6.96152">
        <ele>1977.14</ele>
        <time>2018-04-21T08:39:46.000Z</time>
      </trkpt>
      <trkpt lat="44.57497" lon="6.9619">
        <ele>1975.74</ele>
        <time>2018-04-21T08:39:54.000Z</time>
      </trkpt>
      <trkpt lat="44.57501" lon="6.96224">
        <ele>1974.33</ele>
        <time>2018-04-21T08:40:02.000Z</time>
      </trkpt>
      <trkpt lat="44.57501" lon="6.96256">
        <ele>1972.42</ele>
        <time>2018-04-21T08:40:06.000Z</time>
      </trkpt>
      <trkpt lat="44.57503" lon="6.96284">
        <ele>1970.44</ele>
        <time>2018-04-21T08:40:10.000Z</time>
      </trkpt>
      <trkpt lat="44.5751" lon="6.96315">
        <ele>1968.56</ele>
        <time>2018-04-21T08:40:14.000Z</time>
      </trkpt>
      <trkpt lat="44.57518" lon="6.9634">
        <ele>1966.75</ele>
        <time>2018-04-21T08:40:18.000Z</time>
      </trkpt>
      <trkpt lat="44.57527" lon="6.96382">
        <ele>1963.68</ele>
        <time>2018-04-21T08:40:26.000Z</time>
      </trkpt>
      <trkpt lat="44.57531" lon="6.96417">
        <ele>1962.47</ele>
        <time>2018-04-21T08:40:34.000Z</time>
      </trkpt>
      <trkpt lat="44.57531" lon="6.96457">
        <ele>1961.47</ele>
        <time>2018-04-21T08:40:42.000Z</time>
      </trkpt>
      <trkpt lat="44.5753" lon="6.96487">
        <ele>1960.39</ele>
        <time>2018-04-21T08:40:50.000Z</time>
      </trkpt>
      <trkpt lat="44.57532" lon="6.96524">
        <ele>1957.04</ele>
        <time>2018-04-21T08:40:58.000Z</time>
      </trkpt>
      <trkpt lat="44.57541" lon="6.96567">
        <ele>1951.41</ele>
        <time>2018-04-21T08:41:06.000Z</time>
      </trkpt>
      <trkpt lat="44.57529" lon="6.96614">
        <ele>1946.52</ele>
        <time>2018-04-21T08:41:14.000Z</time>
      </trkpt>
      <trkpt lat="44.57522" lon="6.96643">
        <ele>1944.03</ele>
        <time>2018-04-21T08:41:18.000Z</time>
      </trkpt>
      <trkpt lat="44.57511" lon="6.96669">
        <ele>1941.11</ele>
        <time>2018-04-21T08:41:22.000Z</time>
      </trkpt>
      <trkpt lat="44.57492" lon="6.96686">
        <ele>1937.63</ele>
        <time>2018-04-21T08:41:26.000Z</time>
      </trkpt>
      <trkpt lat="44.57486" lon="6.96713">
        <ele>1934.03</ele>
        <time>2018-04-21T08:41:30.000Z</time>
      </trkpt>
      <trkpt lat="44.57482" lon="6.96744">
        <ele>1930.77</ele>
        <time>2018-04-21T08:41:34.000Z</time>
      </trkpt>
      <trkpt lat="44.57475" lon="6.9677">
        <ele>1928.06</ele>
        <time>2018-04-21T08:41:38.000Z</time>
      </trkpt>
      <trkpt lat="44.57463" lon="6.96797">
        <ele>1925.34</ele>
        <time>2018-04-21T08:41:42.000Z</time>
      </trkpt>
      <trkpt lat="44.57454" lon="6.96827">
        <ele>1922.66</ele>
        <time>2018-04-21T08:41:46.000Z</time>
      </trkpt>
      <trkpt lat="44.57452" lon="6.96867">
        <ele>1919.87</ele>
        <time>2018-04-21T08:41:54.000Z</time>
      </trkpt>
      <trkpt lat="44.57447" lon="6.96915">
        <ele>1915.83</ele>
        <time>2018-04-21T08:42:02.000Z</time>
      </trkpt>
      <trkpt lat="44.57438" lon="6.96943">
        <ele>1913</ele>
        <time>2018-04-21T08:42:06.000Z</time>
      </trkpt>
      <trkpt lat="44.57423" lon="6.96974">
        <ele>1909.74</ele>
        <time>2018-04-21T08:42:10.000Z</time>
      </trkpt>
      <trkpt lat="44.57409" lon="6.97006">
        <ele>1905.95</ele>
        <time>2018-04-21T08:42:14.000Z</time>
      </trkpt>
      <trkpt lat="44.57402" lon="6.9703">
        <ele>1902.69</ele>
        <time>2018-04-21T08:42:18.000Z</time>
      </trkpt>
      <trkpt lat="44.57393" lon="6.97063">
        <ele>1893.42</ele>
        <time>2018-04-21T08:43:43.000Z</time>
      </trkpt>
      <trkpt lat="44.57383" lon="6.97084">
        <ele>1889.81</ele>
        <time>2018-04-21T08:43:47.000Z</time>
      </trkpt>
      <trkpt lat="44.57378" lon="6.97139">
        <ele>1882.22</ele>
        <time>2018-04-21T08:43:55.000Z</time>
      </trkpt>
      <trkpt lat="44.57373" lon="6.97187">
        <ele>1875.48</ele>
        <time>2018-04-21T08:44:03.000Z</time>
      </trkpt>
      <trkpt lat="44.57363" lon="6.97215">
        <ele>1871.19</ele>
        <time>2018-04-21T08:44:07.000Z</time>
      </trkpt>
      <trkpt lat="44.57353" lon="6.97239">
        <ele>1867.05</ele>
        <time>2018-04-21T08:44:11.000Z</time>
      </trkpt>
      <trkpt lat="44.5733" lon="6.97281">
        <ele>1858.52</ele>
        <time>2018-04-21T08:44:19.000Z</time>
      </trkpt>
      <trkpt lat="44.57329" lon="6.97315">
        <ele>1855.58</ele>
        <time>2018-04-21T08:44:27.000Z</time>
      </trkpt>
      <trkpt lat="44.57333" lon="6.97347">
        <ele>1854.78</ele>
        <time>2018-04-21T08:44:51.000Z</time>
      </trkpt>
      <trkpt lat="44.57336" lon="6.97374">
        <ele>1854.1</ele>
        <time>2018-04-21T08:45:03.000Z</time>
      </trkpt>
      <trkpt lat="44.5734" lon="6.97413">
        <ele>1851.47</ele>
        <time>2018-04-21T08:45:15.000Z</time>
      </trkpt>
      <trkpt lat="44.57347" lon="6.97439">
        <ele>1849.03</ele>
        <time>2018-04-21T08:45:19.000Z</time>
      </trkpt>
      <trkpt lat="44.57356" lon="6.97463">
        <ele>1846.51</ele>
        <time>2018-04-21T08:45:23.000Z</time>
      </trkpt>
      <trkpt lat="44.57365" lon="6.97489">
        <ele>1843.77</ele>
        <time>2018-04-21T08:45:27.000Z</time>
      </trkpt>
      <trkpt lat="44.57372" lon="6.97518">
        <ele>1840.88</ele>
        <time>2018-04-21T08:45:31.000Z</time>
      </trkpt>
      <trkpt lat="44.5738" lon="6.97541">
        <ele>1838.29</ele>
        <time>2018-04-21T08:45:35.000Z</time>
      </trkpt>
      <trkpt lat="44.57389" lon="6.97574">
        <ele>1836.21</ele>
        <time>2018-04-21T08:45:43.000Z</time>
      </trkpt>
      <trkpt lat="44.57397" lon="6.97602">
        <ele>1835.43</ele>
        <time>2018-04-21T08:45:55.000Z</time>
      </trkpt>
      <trkpt lat="44.57407" lon="6.97637">
        <ele>1833.33</ele>
        <time>2018-04-21T08:46:23.000Z</time>
      </trkpt>
      <trkpt lat="44.57424" lon="6.97675">
        <ele>1828.99</ele>
        <time>2018-04-21T08:46:31.000Z</time>
      </trkpt>
      <trkpt lat="44.5744" lon="6.97698">
        <ele>1828.08</ele>
        <time>2018-04-21T08:46:39.000Z</time>
      </trkpt>
      <trkpt lat="44.57453" lon="6.97722">
        <ele>1827.39</ele>
        <time>2018-04-21T08:46:46.000Z</time>
      </trkpt>
      <trkpt lat="44.5746" lon="6.97756">
        <ele>1825.95</ele>
        <time>2018-04-21T08:46:58.000Z</time>
      </trkpt>
      <trkpt lat="44.5746" lon="6.97786">
        <ele>1824.96</ele>
        <time>2018-04-21T08:47:06.000Z</time>
      </trkpt>
      <trkpt lat="44.57455" lon="6.97812">
        <ele>1824.04</ele>
        <time>2018-04-21T08:47:14.000Z</time>
      </trkpt>
      <trkpt lat="44.57448" lon="6.9784">
        <ele>1823.16</ele>
        <time>2018-04-21T08:47:22.000Z</time>
      </trkpt>
      <trkpt lat="44.5744" lon="6.9788">
        <ele>1819.49</ele>
        <time>2018-04-21T08:48:10.000Z</time>
      </trkpt>
      <trkpt lat="44.57436" lon="6.97913">
        <ele>1818.38</ele>
        <time>2018-04-21T08:48:18.000Z</time>
      </trkpt>
      <trkpt lat="44.5743" lon="6.97939">
        <ele>1817.85</ele>
        <time>2018-04-21T08:48:26.000Z</time>
      </trkpt>
      <trkpt lat="44.57423" lon="6.97967">
        <ele>1817.48</ele>
        <time>2018-04-21T08:48:34.000Z</time>
      </trkpt>
      <trkpt lat="44.57419" lon="6.97999">
        <ele>1817.05</ele>
        <time>2018-04-21T08:48:42.000Z</time>
      </trkpt>
      <trkpt lat="44.57417" lon="6.98032">
        <ele>1816.43</ele>
        <time>2018-04-21T08:48:50.000Z</time>
      </trkpt>
      <trkpt lat="44.57415" lon="6.98058">
        <ele>1815.56</ele>
        <time>2018-04-21T08:48:58.000Z</time>
      </trkpt>
      <trkpt lat="44.57414" lon="6.98085">
        <ele>1814.58</ele>
        <time>2018-04-21T08:49:06.000Z</time>
      </trkpt>
      <trkpt lat="44.57414" lon="6.98113">
        <ele>1813.57</ele>
        <time>2018-04-21T08:49:14.000Z</time>
      </trkpt>
      <trkpt lat="44.57431" lon="6.98155">
        <ele>1808.7</ele>
        <time>2018-04-21T08:49:26.000Z</time>
      </trkpt>
      <trkpt lat="44.57446" lon="6.98173">
        <ele>1804.74</ele>
        <time>2018-04-21T08:50:58.000Z</time>
      </trkpt>
    </trkseg>
  </trk>
</gpx>